<?xml version="1.0" encoding="UTF-8" standalone="no" ?>
<gpx xmlns="http://www.topografix.com/GPX/1/1" creator="MapSource 6.15.6" version="1.1" xmlns:xsi="http://www.w3.org/2001/XMLSchema-instance" xsi:schemaLocation="http://www.topografix.com/GPX/1/1 http://www.topografix.com/GPX/1/1/gpx.xsd">

  <metadata>
    <link href="http://www.garmin.com">
      <text>Garmin International</text>
    </link>
    <time>2009-06-25T15:49:02Z</time>
    <bounds maxlat="44.9704750" maxlon="-93.4469620" minlat="44.9033570" minlon="-93.5520560"/>
  </metadata>

  <trk>
    <name>090624_WedDr</name>
    <extensions>
      <gpxx:TrackExtension xmlns:gpxx="http://www.garmin.com/xmlschemas/GpxExtensions/v3">
        <gpxx:DisplayColor>White</gpxx:DisplayColor>
      </gpxx:TrackExtension>
    </extensions>
    <trkseg>
      <trkpt lat="44.9392680" lon="-93.4675750">
        <ele>289.9700000</ele>
        <time>2009-06-24T23:32:12Z</time>
      </trkpt>
      <trkpt lat="44.9392080" lon="-93.4674020">
        <ele>292.8600000</ele>
        <time>2009-06-24T23:33:45Z</time>
      </trkpt>
      <trkpt lat="44.9392080" lon="-93.4673920">
        <ele>292.8600000</ele>
        <time>2009-06-24T23:33:56Z</time>
      </trkpt>
      <trkpt lat="44.9394020" lon="-93.4673130">
        <ele>291.9000000</ele>
        <time>2009-06-24T23:34:05Z</time>
      </trkpt>
      <trkpt lat="44.9394410" lon="-93.4674680">
        <ele>289.0100000</ele>
        <time>2009-06-24T23:34:09Z</time>
      </trkpt>
      <trkpt lat="44.9394110" lon="-93.4678610">
        <ele>283.7300000</ele>
        <time>2009-06-24T23:34:20Z</time>
      </trkpt>
      <trkpt lat="44.9393510" lon="-93.4678610">
        <ele>283.2500000</ele>
        <time>2009-06-24T23:34:21Z</time>
      </trkpt>
      <trkpt lat="44.9392780" lon="-93.4678610">
        <ele>283.7300000</ele>
        <time>2009-06-24T23:34:22Z</time>
      </trkpt>
      <trkpt lat="44.9391840" lon="-93.4678610">
        <ele>283.2500000</ele>
        <time>2009-06-24T23:34:23Z</time>
      </trkpt>
      <trkpt lat="44.9390730" lon="-93.4678610">
        <ele>283.2500000</ele>
        <time>2009-06-24T23:34:24Z</time>
      </trkpt>
      <trkpt lat="44.9389690" lon="-93.4678450">
        <ele>283.7300000</ele>
        <time>2009-06-24T23:34:25Z</time>
      </trkpt>
      <trkpt lat="44.9388710" lon="-93.4677960">
        <ele>283.7300000</ele>
        <time>2009-06-24T23:34:26Z</time>
      </trkpt>
      <trkpt lat="44.9387810" lon="-93.4676830">
        <ele>283.7300000</ele>
        <time>2009-06-24T23:34:27Z</time>
      </trkpt>
      <trkpt lat="44.9387170" lon="-93.4676040">
        <ele>284.2100000</ele>
        <time>2009-06-24T23:34:28Z</time>
      </trkpt>
      <trkpt lat="44.9386960" lon="-93.4675350">
        <ele>284.6900000</ele>
        <time>2009-06-24T23:34:29Z</time>
      </trkpt>
      <trkpt lat="44.9386830" lon="-93.4674920">
        <ele>284.6900000</ele>
        <time>2009-06-24T23:34:30Z</time>
      </trkpt>
      <trkpt lat="44.9386770" lon="-93.4674720">
        <ele>285.1700000</ele>
        <time>2009-06-24T23:34:31Z</time>
      </trkpt>
      <trkpt lat="44.9386770" lon="-93.4674720">
        <ele>288.0500000</ele>
        <time>2009-06-24T23:34:48Z</time>
      </trkpt>
      <trkpt lat="44.9385750" lon="-93.4671410">
        <ele>289.0100000</ele>
        <time>2009-06-24T23:34:58Z</time>
      </trkpt>
      <trkpt lat="44.9385530" lon="-93.4670690">
        <ele>289.0100000</ele>
        <time>2009-06-24T23:34:59Z</time>
      </trkpt>
      <trkpt lat="44.9384900" lon="-93.4670010">
        <ele>289.0100000</ele>
        <time>2009-06-24T23:35:00Z</time>
      </trkpt>
      <trkpt lat="44.9384390" lon="-93.4669610">
        <ele>289.0100000</ele>
        <time>2009-06-24T23:35:01Z</time>
      </trkpt>
      <trkpt lat="44.9383870" lon="-93.4669190">
        <ele>289.0100000</ele>
        <time>2009-06-24T23:35:02Z</time>
      </trkpt>
      <trkpt lat="44.9383330" lon="-93.4668750">
        <ele>289.4900000</ele>
        <time>2009-06-24T23:35:03Z</time>
      </trkpt>
      <trkpt lat="44.9382390" lon="-93.4668860">
        <ele>289.4900000</ele>
        <time>2009-06-24T23:35:04Z</time>
      </trkpt>
      <trkpt lat="44.9381670" lon="-93.4668950">
        <ele>289.9700000</ele>
        <time>2009-06-24T23:35:05Z</time>
      </trkpt>
      <trkpt lat="44.9381080" lon="-93.4669020">
        <ele>289.9700000</ele>
        <time>2009-06-24T23:35:06Z</time>
      </trkpt>
      <trkpt lat="44.9381080" lon="-93.4669020">
        <ele>291.9000000</ele>
        <time>2009-06-24T23:35:14Z</time>
      </trkpt>
      <trkpt lat="44.9378340" lon="-93.4669210">
        <ele>297.6700000</ele>
        <time>2009-06-24T23:35:52Z</time>
      </trkpt>
      <trkpt lat="44.9373270" lon="-93.4669600">
        <ele>297.6700000</ele>
        <time>2009-06-24T23:35:58Z</time>
      </trkpt>
      <trkpt lat="44.9372590" lon="-93.4669600">
        <ele>298.1500000</ele>
        <time>2009-06-24T23:35:59Z</time>
      </trkpt>
      <trkpt lat="44.9372150" lon="-93.4669600">
        <ele>298.1500000</ele>
        <time>2009-06-24T23:36:00Z</time>
      </trkpt>
      <trkpt lat="44.9372760" lon="-93.4667370">
        <ele>298.6300000</ele>
        <time>2009-06-24T23:36:01Z</time>
      </trkpt>
      <trkpt lat="44.9373070" lon="-93.4666230">
        <ele>298.6300000</ele>
        <time>2009-06-24T23:36:02Z</time>
      </trkpt>
      <trkpt lat="44.9373360" lon="-93.4665160">
        <ele>298.1500000</ele>
        <time>2009-06-24T23:36:03Z</time>
      </trkpt>
      <trkpt lat="44.9373670" lon="-93.4664010">
        <ele>298.1500000</ele>
        <time>2009-06-24T23:36:04Z</time>
      </trkpt>
      <trkpt lat="44.9377760" lon="-93.4648940">
        <ele>298.1500000</ele>
        <time>2009-06-24T23:36:15Z</time>
      </trkpt>
      <trkpt lat="44.9379850" lon="-93.4641780">
        <ele>298.6300000</ele>
        <time>2009-06-24T23:36:21Z</time>
      </trkpt>
      <trkpt lat="44.9380250" lon="-93.4640600">
        <ele>298.6300000</ele>
        <time>2009-06-24T23:36:22Z</time>
      </trkpt>
      <trkpt lat="44.9380640" lon="-93.4639420">
        <ele>298.6300000</ele>
        <time>2009-06-24T23:36:23Z</time>
      </trkpt>
      <trkpt lat="44.9385300" lon="-93.4632140">
        <ele>297.1800000</ele>
        <time>2009-06-24T23:36:33Z</time>
      </trkpt>
      <trkpt lat="44.9386670" lon="-93.4625190">
        <ele>300.0700000</ele>
        <time>2009-06-24T23:36:43Z</time>
      </trkpt>
      <trkpt lat="44.9388890" lon="-93.4608830">
        <ele>301.9900000</ele>
        <time>2009-06-24T23:36:54Z</time>
      </trkpt>
      <trkpt lat="44.9393180" lon="-93.4594710">
        <ele>299.5900000</ele>
        <time>2009-06-24T23:37:04Z</time>
      </trkpt>
      <trkpt lat="44.9402480" lon="-93.4575980">
        <ele>297.6700000</ele>
        <time>2009-06-24T23:37:17Z</time>
      </trkpt>
      <trkpt lat="44.9403120" lon="-93.4574370">
        <ele>297.6700000</ele>
        <time>2009-06-24T23:37:18Z</time>
      </trkpt>
      <trkpt lat="44.9403590" lon="-93.4572660">
        <ele>297.6700000</ele>
        <time>2009-06-24T23:37:19Z</time>
      </trkpt>
      <trkpt lat="44.9405960" lon="-93.4554400">
        <ele>296.2200000</ele>
        <time>2009-06-24T23:37:29Z</time>
      </trkpt>
      <trkpt lat="44.9404380" lon="-93.4530550">
        <ele>296.7000000</ele>
        <time>2009-06-24T23:37:42Z</time>
      </trkpt>
      <trkpt lat="44.9401540" lon="-93.4503890">
        <ele>295.7400000</ele>
        <time>2009-06-24T23:37:58Z</time>
      </trkpt>
      <trkpt lat="44.9401140" lon="-93.4490730">
        <ele>294.3000000</ele>
        <time>2009-06-24T23:38:10Z</time>
      </trkpt>
      <trkpt lat="44.9401210" lon="-93.4488460">
        <ele>295.2600000</ele>
        <time>2009-06-24T23:38:17Z</time>
      </trkpt>
      <trkpt lat="44.9401320" lon="-93.4485010">
        <ele>295.2600000</ele>
        <time>2009-06-24T23:38:24Z</time>
      </trkpt>
      <trkpt lat="44.9400990" lon="-93.4484460">
        <ele>294.7800000</ele>
        <time>2009-06-24T23:38:25Z</time>
      </trkpt>
      <trkpt lat="44.9400470" lon="-93.4484200">
        <ele>294.7800000</ele>
        <time>2009-06-24T23:38:26Z</time>
      </trkpt>
      <trkpt lat="44.9399810" lon="-93.4483870">
        <ele>294.7800000</ele>
        <time>2009-06-24T23:38:27Z</time>
      </trkpt>
      <trkpt lat="44.9399070" lon="-93.4483500">
        <ele>294.3000000</ele>
        <time>2009-06-24T23:38:28Z</time>
      </trkpt>
      <trkpt lat="44.9391250" lon="-93.4479590">
        <ele>297.6700000</ele>
        <time>2009-06-24T23:38:35Z</time>
      </trkpt>
      <trkpt lat="44.9377030" lon="-93.4475140">
        <ele>302.4700000</ele>
        <time>2009-06-24T23:38:45Z</time>
      </trkpt>
      <trkpt lat="44.9361250" lon="-93.4471980">
        <ele>303.9100000</ele>
        <time>2009-06-24T23:38:57Z</time>
      </trkpt>
      <trkpt lat="44.9343860" lon="-93.4469620">
        <ele>311.1200000</ele>
        <time>2009-06-24T23:39:10Z</time>
      </trkpt>
      <trkpt lat="44.9317860" lon="-93.4471070">
        <ele>319.7800000</ele>
        <time>2009-06-24T23:39:27Z</time>
      </trkpt>
      <trkpt lat="44.9302720" lon="-93.4474640">
        <ele>319.3000000</ele>
        <time>2009-06-24T23:39:37Z</time>
      </trkpt>
      <trkpt lat="44.9288590" lon="-93.4477580">
        <ele>317.3700000</ele>
        <time>2009-06-24T23:39:47Z</time>
      </trkpt>
      <trkpt lat="44.9285780" lon="-93.4476880">
        <ele>317.8500000</ele>
        <time>2009-06-24T23:39:49Z</time>
      </trkpt>
      <trkpt lat="44.9267870" lon="-93.4473910">
        <ele>324.5800000</ele>
        <time>2009-06-24T23:40:01Z</time>
      </trkpt>
      <trkpt lat="44.9243480" lon="-93.4475030">
        <ele>324.1000000</ele>
        <time>2009-06-24T23:40:15Z</time>
      </trkpt>
      <trkpt lat="44.9218610" lon="-93.4477630">
        <ele>330.8300000</ele>
        <time>2009-06-24T23:40:29Z</time>
      </trkpt>
      <trkpt lat="44.9200880" lon="-93.4476790">
        <ele>328.4300000</ele>
        <time>2009-06-24T23:40:40Z</time>
      </trkpt>
      <trkpt lat="44.9185370" lon="-93.4477460">
        <ele>319.7800000</ele>
        <time>2009-06-24T23:40:50Z</time>
      </trkpt>
      <trkpt lat="44.9176330" lon="-93.4476370">
        <ele>318.3300000</ele>
        <time>2009-06-24T23:40:57Z</time>
      </trkpt>
      <trkpt lat="44.9169880" lon="-93.4475990">
        <ele>318.8100000</ele>
        <time>2009-06-24T23:41:06Z</time>
      </trkpt>
      <trkpt lat="44.9166900" lon="-93.4475820">
        <ele>318.8100000</ele>
        <time>2009-06-24T23:41:17Z</time>
      </trkpt>
      <trkpt lat="44.9164340" lon="-93.4475670">
        <ele>320.2600000</ele>
        <time>2009-06-24T23:41:33Z</time>
      </trkpt>
      <trkpt lat="44.9162780" lon="-93.4475560">
        <ele>317.3700000</ele>
        <time>2009-06-24T23:41:40Z</time>
      </trkpt>
      <trkpt lat="44.9158640" lon="-93.4475210">
        <ele>315.4500000</ele>
        <time>2009-06-24T23:41:54Z</time>
      </trkpt>
      <trkpt lat="44.9157580" lon="-93.4476340">
        <ele>315.4500000</ele>
        <time>2009-06-24T23:41:55Z</time>
      </trkpt>
      <trkpt lat="44.9156610" lon="-93.4477630">
        <ele>315.4500000</ele>
        <time>2009-06-24T23:41:56Z</time>
      </trkpt>
      <trkpt lat="44.9149500" lon="-93.4487110">
        <ele>316.4100000</ele>
        <time>2009-06-24T23:42:03Z</time>
      </trkpt>
      <trkpt lat="44.9137130" lon="-93.4504910">
        <ele>314.4900000</ele>
        <time>2009-06-24T23:42:16Z</time>
      </trkpt>
      <trkpt lat="44.9134060" lon="-93.4509420">
        <ele>313.5300000</ele>
        <time>2009-06-24T23:42:22Z</time>
      </trkpt>
      <trkpt lat="44.9133380" lon="-93.4510420">
        <ele>311.6000000</ele>
        <time>2009-06-24T23:42:29Z</time>
      </trkpt>
      <trkpt lat="44.9129750" lon="-93.4515750">
        <ele>309.6800000</ele>
        <time>2009-06-24T23:42:39Z</time>
      </trkpt>
      <trkpt lat="44.9120890" lon="-93.4528770">
        <ele>306.3200000</ele>
        <time>2009-06-24T23:42:51Z</time>
      </trkpt>
      <trkpt lat="44.9109440" lon="-93.4544690">
        <ele>302.9500000</ele>
        <time>2009-06-24T23:43:03Z</time>
      </trkpt>
      <trkpt lat="44.9097590" lon="-93.4561950">
        <ele>302.9500000</ele>
        <time>2009-06-24T23:43:15Z</time>
      </trkpt>
      <trkpt lat="44.9090060" lon="-93.4573280">
        <ele>301.9900000</ele>
        <time>2009-06-24T23:43:24Z</time>
      </trkpt>
      <trkpt lat="44.9076170" lon="-93.4593760">
        <ele>292.8600000</ele>
        <time>2009-06-24T23:43:39Z</time>
      </trkpt>
      <trkpt lat="44.9065310" lon="-93.4610380">
        <ele>293.8200000</ele>
        <time>2009-06-24T23:43:51Z</time>
      </trkpt>
      <trkpt lat="44.9058430" lon="-93.4629290">
        <ele>296.2200000</ele>
        <time>2009-06-24T23:44:01Z</time>
      </trkpt>
      <trkpt lat="44.9053060" lon="-93.4640870">
        <ele>297.6700000</ele>
        <time>2009-06-24T23:44:09Z</time>
      </trkpt>
      <trkpt lat="44.9052740" lon="-93.4641440">
        <ele>299.1100000</ele>
        <time>2009-06-24T23:44:15Z</time>
      </trkpt>
      <trkpt lat="44.9051340" lon="-93.4643250">
        <ele>301.0300000</ele>
        <time>2009-06-24T23:44:37Z</time>
      </trkpt>
      <trkpt lat="44.9045030" lon="-93.4652550">
        <ele>301.9900000</ele>
        <time>2009-06-24T23:44:45Z</time>
      </trkpt>
      <trkpt lat="44.9040050" lon="-93.4662620">
        <ele>296.2200000</ele>
        <time>2009-06-24T23:44:55Z</time>
      </trkpt>
      <trkpt lat="44.9037310" lon="-93.4668460">
        <ele>297.6700000</ele>
        <time>2009-06-24T23:45:06Z</time>
      </trkpt>
      <trkpt lat="44.9034450" lon="-93.4674550">
        <ele>300.5500000</ele>
        <time>2009-06-24T23:45:13Z</time>
      </trkpt>
      <trkpt lat="44.9034000" lon="-93.4675510">
        <ele>300.0700000</ele>
        <time>2009-06-24T23:45:14Z</time>
      </trkpt>
      <trkpt lat="44.9033570" lon="-93.4676420">
        <ele>300.0700000</ele>
        <time>2009-06-24T23:45:15Z</time>
      </trkpt>
      <trkpt lat="44.9035070" lon="-93.4677610">
        <ele>299.5900000</ele>
        <time>2009-06-24T23:45:16Z</time>
      </trkpt>
      <trkpt lat="44.9036010" lon="-93.4677840">
        <ele>299.5900000</ele>
        <time>2009-06-24T23:45:17Z</time>
      </trkpt>
      <trkpt lat="44.9037090" lon="-93.4677960">
        <ele>300.0700000</ele>
        <time>2009-06-24T23:45:18Z</time>
      </trkpt>
      <trkpt lat="44.9038020" lon="-93.4678060">
        <ele>300.0700000</ele>
        <time>2009-06-24T23:45:19Z</time>
      </trkpt>
      <trkpt lat="44.9050160" lon="-93.4678180">
        <ele>302.9500000</ele>
        <time>2009-06-24T23:45:29Z</time>
      </trkpt>
      <trkpt lat="44.9065460" lon="-93.4678180">
        <ele>311.1200000</ele>
        <time>2009-06-24T23:45:42Z</time>
      </trkpt>
      <trkpt lat="44.9081310" lon="-93.4678180">
        <ele>313.5300000</ele>
        <time>2009-06-24T23:45:54Z</time>
      </trkpt>
      <trkpt lat="44.9103360" lon="-93.4678590">
        <ele>303.4300000</ele>
        <time>2009-06-24T23:46:10Z</time>
      </trkpt>
      <trkpt lat="44.9124640" lon="-93.4678610">
        <ele>304.3900000</ele>
        <time>2009-06-24T23:46:25Z</time>
      </trkpt>
      <trkpt lat="44.9146680" lon="-93.4678790">
        <ele>313.0500000</ele>
        <time>2009-06-24T23:46:40Z</time>
      </trkpt>
      <trkpt lat="44.9165300" lon="-93.4679330">
        <ele>318.8100000</ele>
        <time>2009-06-24T23:46:54Z</time>
      </trkpt>
      <trkpt lat="44.9185600" lon="-93.4679900">
        <ele>334.2000000</ele>
        <time>2009-06-24T23:47:10Z</time>
      </trkpt>
      <trkpt lat="44.9204670" lon="-93.4679570">
        <ele>330.3500000</ele>
        <time>2009-06-24T23:47:25Z</time>
      </trkpt>
      <trkpt lat="44.9206950" lon="-93.4679490">
        <ele>328.9100000</ele>
        <time>2009-06-24T23:47:30Z</time>
      </trkpt>
      <trkpt lat="44.9206950" lon="-93.4679490">
        <ele>329.3900000</ele>
        <time>2009-06-24T23:47:57Z</time>
      </trkpt>
      <trkpt lat="44.9209240" lon="-93.4679370">
        <ele>328.9100000</ele>
        <time>2009-06-24T23:48:05Z</time>
      </trkpt>
      <trkpt lat="44.9213930" lon="-93.4679130">
        <ele>326.0200000</ele>
        <time>2009-06-24T23:48:13Z</time>
      </trkpt>
      <trkpt lat="44.9214120" lon="-93.4679120">
        <ele>325.0600000</ele>
        <time>2009-06-24T23:48:24Z</time>
      </trkpt>
      <trkpt lat="44.9216740" lon="-93.4679040">
        <ele>324.5800000</ele>
        <time>2009-06-24T23:49:50Z</time>
      </trkpt>
      <trkpt lat="44.9229150" lon="-93.4678410">
        <ele>323.6200000</ele>
        <time>2009-06-24T23:50:02Z</time>
      </trkpt>
      <trkpt lat="44.9244510" lon="-93.4677350">
        <ele>318.8100000</ele>
        <time>2009-06-24T23:50:13Z</time>
      </trkpt>
      <trkpt lat="44.9263470" lon="-93.4676140">
        <ele>311.6000000</ele>
        <time>2009-06-24T23:50:27Z</time>
      </trkpt>
      <trkpt lat="44.9285920" lon="-93.4674540">
        <ele>301.5100000</ele>
        <time>2009-06-24T23:50:42Z</time>
      </trkpt>
      <trkpt lat="44.9313690" lon="-93.4672810">
        <ele>297.6700000</ele>
        <time>2009-06-24T23:51:01Z</time>
      </trkpt>
      <trkpt lat="44.9343650" lon="-93.4670980">
        <ele>290.9400000</ele>
        <time>2009-06-24T23:51:21Z</time>
      </trkpt>
      <trkpt lat="44.9355240" lon="-93.4670460">
        <ele>289.0100000</ele>
        <time>2009-06-24T23:51:31Z</time>
      </trkpt>
      <trkpt lat="44.9371490" lon="-93.4669640">
        <ele>287.5700000</ele>
        <time>2009-06-24T23:51:45Z</time>
      </trkpt>
      <trkpt lat="44.9374620" lon="-93.4669600">
        <ele>287.5700000</ele>
        <time>2009-06-24T23:51:51Z</time>
      </trkpt>
      <trkpt lat="44.9374780" lon="-93.4669600">
        <ele>287.0900000</ele>
        <time>2009-06-24T23:52:02Z</time>
      </trkpt>
      <trkpt lat="44.9377060" lon="-93.4669390">
        <ele>287.0900000</ele>
        <time>2009-06-24T23:52:08Z</time>
      </trkpt>
      <trkpt lat="44.9377870" lon="-93.4669280">
        <ele>287.5700000</ele>
        <time>2009-06-24T23:52:09Z</time>
      </trkpt>
      <trkpt lat="44.9378570" lon="-93.4669180">
        <ele>287.5700000</ele>
        <time>2009-06-24T23:52:10Z</time>
      </trkpt>
      <trkpt lat="44.9379210" lon="-93.4669170">
        <ele>287.5700000</ele>
        <time>2009-06-24T23:52:11Z</time>
      </trkpt>
      <trkpt lat="44.9379450" lon="-93.4671740">
        <ele>287.5700000</ele>
        <time>2009-06-24T23:52:12Z</time>
      </trkpt>
      <trkpt lat="44.9379260" lon="-93.4672880">
        <ele>288.0500000</ele>
        <time>2009-06-24T23:52:13Z</time>
      </trkpt>
      <trkpt lat="44.9378970" lon="-93.4674650">
        <ele>288.0500000</ele>
        <time>2009-06-24T23:52:14Z</time>
      </trkpt>
      <trkpt lat="44.9378670" lon="-93.4676440">
        <ele>288.0500000</ele>
        <time>2009-06-24T23:52:15Z</time>
      </trkpt>
      <trkpt lat="44.9375430" lon="-93.4698380">
        <ele>289.0100000</ele>
        <time>2009-06-24T23:52:26Z</time>
      </trkpt>
      <trkpt lat="44.9375500" lon="-93.4718680">
        <ele>292.3800000</ele>
        <time>2009-06-24T23:52:35Z</time>
      </trkpt>
      <trkpt lat="44.9381190" lon="-93.4749390">
        <ele>297.1800000</ele>
        <time>2009-06-24T23:52:49Z</time>
      </trkpt>
      <trkpt lat="44.9388610" lon="-93.4784960">
        <ele>295.2600000</ele>
        <time>2009-06-24T23:53:05Z</time>
      </trkpt>
      <trkpt lat="44.9396400" lon="-93.4820120">
        <ele>291.9000000</ele>
        <time>2009-06-24T23:53:21Z</time>
      </trkpt>
      <trkpt lat="44.9404110" lon="-93.4834930">
        <ele>290.9400000</ele>
        <time>2009-06-24T23:53:29Z</time>
      </trkpt>
      <trkpt lat="44.9414570" lon="-93.4853480">
        <ele>297.1800000</ele>
        <time>2009-06-24T23:53:41Z</time>
      </trkpt>
      <trkpt lat="44.9417030" lon="-93.4858050">
        <ele>298.6300000</ele>
        <time>2009-06-24T23:53:46Z</time>
      </trkpt>
      <trkpt lat="44.9417230" lon="-93.4858500">
        <ele>298.6300000</ele>
        <time>2009-06-24T23:53:47Z</time>
      </trkpt>
      <trkpt lat="44.9418370" lon="-93.4858170">
        <ele>298.6300000</ele>
        <time>2009-06-24T23:53:48Z</time>
      </trkpt>
      <trkpt lat="44.9419070" lon="-93.4858020">
        <ele>298.6300000</ele>
        <time>2009-06-24T23:53:49Z</time>
      </trkpt>
      <trkpt lat="44.9419780" lon="-93.4857860">
        <ele>297.6700000</ele>
        <time>2009-06-24T23:53:50Z</time>
      </trkpt>
      <trkpt lat="44.9420380" lon="-93.4857730">
        <ele>296.7000000</ele>
        <time>2009-06-24T23:53:51Z</time>
      </trkpt>
      <trkpt lat="44.9421700" lon="-93.4857210">
        <ele>294.3000000</ele>
        <time>2009-06-24T23:53:59Z</time>
      </trkpt>
      <trkpt lat="44.9424410" lon="-93.4855660">
        <ele>292.8600000</ele>
        <time>2009-06-24T23:54:13Z</time>
      </trkpt>
      <trkpt lat="44.9427050" lon="-93.4854160">
        <ele>294.3000000</ele>
        <time>2009-06-24T23:54:19Z</time>
      </trkpt>
      <trkpt lat="44.9433910" lon="-93.4854250">
        <ele>292.3800000</ele>
        <time>2009-06-24T23:54:32Z</time>
      </trkpt>
      <trkpt lat="44.9440800" lon="-93.4854370">
        <ele>289.0100000</ele>
        <time>2009-06-24T23:54:42Z</time>
      </trkpt>
      <trkpt lat="44.9450470" lon="-93.4854540">
        <ele>290.4600000</ele>
        <time>2009-06-24T23:54:55Z</time>
      </trkpt>
      <trkpt lat="44.9452760" lon="-93.4854150">
        <ele>290.9400000</ele>
        <time>2009-06-24T23:54:58Z</time>
      </trkpt>
      <trkpt lat="44.9453400" lon="-93.4853810">
        <ele>290.4600000</ele>
        <time>2009-06-24T23:54:59Z</time>
      </trkpt>
      <trkpt lat="44.9454020" lon="-93.4853480">
        <ele>289.9700000</ele>
        <time>2009-06-24T23:55:00Z</time>
      </trkpt>
      <trkpt lat="44.9456500" lon="-93.4852170">
        <ele>289.0100000</ele>
        <time>2009-06-24T23:55:04Z</time>
      </trkpt>
      <trkpt lat="44.9460070" lon="-93.4850570">
        <ele>286.6100000</ele>
        <time>2009-06-24T23:55:09Z</time>
      </trkpt>
      <trkpt lat="44.9460910" lon="-93.4850430">
        <ele>286.1300000</ele>
        <time>2009-06-24T23:55:10Z</time>
      </trkpt>
      <trkpt lat="44.9461660" lon="-93.4850310">
        <ele>285.6500000</ele>
        <time>2009-06-24T23:55:11Z</time>
      </trkpt>
      <trkpt lat="44.9462440" lon="-93.4850500">
        <ele>285.1700000</ele>
        <time>2009-06-24T23:55:12Z</time>
      </trkpt>
      <trkpt lat="44.9463150" lon="-93.4850760">
        <ele>284.6900000</ele>
        <time>2009-06-24T23:55:13Z</time>
      </trkpt>
      <trkpt lat="44.9463870" lon="-93.4851030">
        <ele>284.6900000</ele>
        <time>2009-06-24T23:55:14Z</time>
      </trkpt>
      <trkpt lat="44.9464590" lon="-93.4851300">
        <ele>284.6900000</ele>
        <time>2009-06-24T23:55:15Z</time>
      </trkpt>
      <trkpt lat="44.9465350" lon="-93.4851700">
        <ele>284.6900000</ele>
        <time>2009-06-24T23:55:16Z</time>
      </trkpt>
      <trkpt lat="44.9465780" lon="-93.4852570">
        <ele>283.7300000</ele>
        <time>2009-06-24T23:55:17Z</time>
      </trkpt>
      <trkpt lat="44.9466220" lon="-93.4853450">
        <ele>283.2500000</ele>
        <time>2009-06-24T23:55:18Z</time>
      </trkpt>
      <trkpt lat="44.9466570" lon="-93.4854180">
        <ele>281.8000000</ele>
        <time>2009-06-24T23:55:19Z</time>
      </trkpt>
      <trkpt lat="44.9466690" lon="-93.4855190">
        <ele>280.3600000</ele>
        <time>2009-06-24T23:55:20Z</time>
      </trkpt>
      <trkpt lat="44.9466820" lon="-93.4856280">
        <ele>278.9200000</ele>
        <time>2009-06-24T23:55:21Z</time>
      </trkpt>
      <trkpt lat="44.9466950" lon="-93.4857360">
        <ele>277.9600000</ele>
        <time>2009-06-24T23:55:22Z</time>
      </trkpt>
      <trkpt lat="44.9467340" lon="-93.4860750">
        <ele>275.5600000</ele>
        <time>2009-06-24T23:55:25Z</time>
      </trkpt>
      <trkpt lat="44.9467790" lon="-93.4862130">
        <ele>274.5900000</ele>
        <time>2009-06-24T23:55:26Z</time>
      </trkpt>
      <trkpt lat="44.9473020" lon="-93.4872210">
        <ele>274.1100000</ele>
        <time>2009-06-24T23:55:35Z</time>
      </trkpt>
      <trkpt lat="44.9473290" lon="-93.4873540">
        <ele>274.1100000</ele>
        <time>2009-06-24T23:55:36Z</time>
      </trkpt>
      <trkpt lat="44.9473570" lon="-93.4874840">
        <ele>274.1100000</ele>
        <time>2009-06-24T23:55:37Z</time>
      </trkpt>
      <trkpt lat="44.9475510" lon="-93.4882290">
        <ele>271.7100000</ele>
        <time>2009-06-24T23:55:43Z</time>
      </trkpt>
      <trkpt lat="44.9477060" lon="-93.4886160">
        <ele>274.5900000</ele>
        <time>2009-06-24T23:55:47Z</time>
      </trkpt>
      <trkpt lat="44.9477510" lon="-93.4886930">
        <ele>274.5900000</ele>
        <time>2009-06-24T23:55:48Z</time>
      </trkpt>
      <trkpt lat="44.9478150" lon="-93.4887460">
        <ele>274.1100000</ele>
        <time>2009-06-24T23:55:49Z</time>
      </trkpt>
      <trkpt lat="44.9478810" lon="-93.4888010">
        <ele>274.1100000</ele>
        <time>2009-06-24T23:55:50Z</time>
      </trkpt>
      <trkpt lat="44.9479460" lon="-93.4888560">
        <ele>274.1100000</ele>
        <time>2009-06-24T23:55:51Z</time>
      </trkpt>
      <trkpt lat="44.9480120" lon="-93.4888980">
        <ele>274.5900000</ele>
        <time>2009-06-24T23:55:52Z</time>
      </trkpt>
      <trkpt lat="44.9480900" lon="-93.4889240">
        <ele>275.0700000</ele>
        <time>2009-06-24T23:55:53Z</time>
      </trkpt>
      <trkpt lat="44.9487470" lon="-93.4891360">
        <ele>280.8400000</ele>
        <time>2009-06-24T23:56:03Z</time>
      </trkpt>
      <trkpt lat="44.9493270" lon="-93.4894950">
        <ele>284.6900000</ele>
        <time>2009-06-24T23:56:15Z</time>
      </trkpt>
      <trkpt lat="44.9493720" lon="-93.4895560">
        <ele>284.6900000</ele>
        <time>2009-06-24T23:56:16Z</time>
      </trkpt>
      <trkpt lat="44.9494110" lon="-93.4896350">
        <ele>284.2100000</ele>
        <time>2009-06-24T23:56:17Z</time>
      </trkpt>
      <trkpt lat="44.9494510" lon="-93.4897150">
        <ele>284.2100000</ele>
        <time>2009-06-24T23:56:18Z</time>
      </trkpt>
      <trkpt lat="44.9494890" lon="-93.4897910">
        <ele>283.7300000</ele>
        <time>2009-06-24T23:56:19Z</time>
      </trkpt>
      <trkpt lat="44.9494890" lon="-93.4897910">
        <ele>283.7300000</ele>
        <time>2009-06-24T23:56:20Z</time>
      </trkpt>
      <trkpt lat="44.9495970" lon="-93.4897970">
        <ele>284.2100000</ele>
        <time>2009-06-24T23:56:21Z</time>
      </trkpt>
      <trkpt lat="44.9496540" lon="-93.4898000">
        <ele>284.2100000</ele>
        <time>2009-06-24T23:56:22Z</time>
      </trkpt>
      <trkpt lat="44.9497190" lon="-93.4898040">
        <ele>284.2100000</ele>
        <time>2009-06-24T23:56:23Z</time>
      </trkpt>
      <trkpt lat="44.9502230" lon="-93.4898320">
        <ele>287.0900000</ele>
        <time>2009-06-24T23:56:33Z</time>
      </trkpt>
      <trkpt lat="44.9502700" lon="-93.4898090">
        <ele>287.0900000</ele>
        <time>2009-06-24T23:56:34Z</time>
      </trkpt>
      <trkpt lat="44.9502870" lon="-93.4897590">
        <ele>287.5700000</ele>
        <time>2009-06-24T23:56:35Z</time>
      </trkpt>
      <trkpt lat="44.9503090" lon="-93.4896920">
        <ele>288.0500000</ele>
        <time>2009-06-24T23:56:36Z</time>
      </trkpt>
      <trkpt lat="44.9503590" lon="-93.4895430">
        <ele>289.4900000</ele>
        <time>2009-06-24T23:56:38Z</time>
      </trkpt>
      <trkpt lat="44.9504630" lon="-93.4892290">
        <ele>288.5300000</ele>
        <time>2009-06-24T23:56:42Z</time>
      </trkpt>
      <trkpt lat="44.9504900" lon="-93.4891680">
        <ele>288.0500000</ele>
        <time>2009-06-24T23:56:43Z</time>
      </trkpt>
      <trkpt lat="44.9508320" lon="-93.4887120">
        <ele>284.2100000</ele>
        <time>2009-06-24T23:56:54Z</time>
      </trkpt>
      <trkpt lat="44.9512620" lon="-93.4885530">
        <ele>284.6900000</ele>
        <time>2009-06-24T23:57:05Z</time>
      </trkpt>
      <trkpt lat="44.9517040" lon="-93.4884640">
        <ele>286.6100000</ele>
        <time>2009-06-24T23:57:14Z</time>
      </trkpt>
      <trkpt lat="44.9518440" lon="-93.4884850">
        <ele>286.1300000</ele>
        <time>2009-06-24T23:57:16Z</time>
      </trkpt>
      <trkpt lat="44.9519220" lon="-93.4885010">
        <ele>286.1300000</ele>
        <time>2009-06-24T23:57:17Z</time>
      </trkpt>
      <trkpt lat="44.9525180" lon="-93.4886660">
        <ele>289.4900000</ele>
        <time>2009-06-24T23:57:26Z</time>
      </trkpt>
      <trkpt lat="44.9525670" lon="-93.4886590">
        <ele>289.9700000</ele>
        <time>2009-06-24T23:57:27Z</time>
      </trkpt>
      <trkpt lat="44.9526660" lon="-93.4886440">
        <ele>289.9700000</ele>
        <time>2009-06-24T23:57:29Z</time>
      </trkpt>
      <trkpt lat="44.9527130" lon="-93.4886380">
        <ele>289.9700000</ele>
        <time>2009-06-24T23:57:30Z</time>
      </trkpt>
      <trkpt lat="44.9527600" lon="-93.4886250">
        <ele>289.4900000</ele>
        <time>2009-06-24T23:57:31Z</time>
      </trkpt>
      <trkpt lat="44.9528050" lon="-93.4885920">
        <ele>289.0100000</ele>
        <time>2009-06-24T23:57:32Z</time>
      </trkpt>
      <trkpt lat="44.9528480" lon="-93.4885590">
        <ele>289.0100000</ele>
        <time>2009-06-24T23:57:33Z</time>
      </trkpt>
      <trkpt lat="44.9528870" lon="-93.4885300">
        <ele>289.4900000</ele>
        <time>2009-06-24T23:57:34Z</time>
      </trkpt>
      <trkpt lat="44.9529260" lon="-93.4884650">
        <ele>290.4600000</ele>
        <time>2009-06-24T23:57:35Z</time>
      </trkpt>
      <trkpt lat="44.9529300" lon="-93.4884140">
        <ele>289.9700000</ele>
        <time>2009-06-24T23:57:36Z</time>
      </trkpt>
      <trkpt lat="44.9529340" lon="-93.4883600">
        <ele>289.4900000</ele>
        <time>2009-06-24T23:57:37Z</time>
      </trkpt>
      <trkpt lat="44.9529400" lon="-93.4882960">
        <ele>288.5300000</ele>
        <time>2009-06-24T23:57:38Z</time>
      </trkpt>
      <trkpt lat="44.9529450" lon="-93.4882280">
        <ele>288.0500000</ele>
        <time>2009-06-24T23:57:39Z</time>
      </trkpt>
      <trkpt lat="44.9527750" lon="-93.4881550">
        <ele>287.0900000</ele>
        <time>2009-06-24T23:57:40Z</time>
      </trkpt>
      <trkpt lat="44.9529540" lon="-93.4881180">
        <ele>287.0900000</ele>
        <time>2009-06-24T23:57:42Z</time>
      </trkpt>
      <trkpt lat="44.9529590" lon="-93.4880650">
        <ele>287.0900000</ele>
        <time>2009-06-24T23:57:43Z</time>
      </trkpt>
      <trkpt lat="44.9529640" lon="-93.4879990">
        <ele>286.6100000</ele>
        <time>2009-06-24T23:57:44Z</time>
      </trkpt>
      <trkpt lat="44.9529650" lon="-93.4879890">
        <ele>286.1300000</ele>
        <time>2009-06-24T23:57:45Z</time>
      </trkpt>
      <trkpt lat="44.9529650" lon="-93.4879890">
        <ele>285.1700000</ele>
        <time>2009-06-24T23:57:46Z</time>
      </trkpt>
      <trkpt lat="44.9530000" lon="-93.4879100">
        <ele>284.6900000</ele>
        <time>2009-06-24T23:57:47Z</time>
      </trkpt>
      <trkpt lat="44.9530370" lon="-93.4878270">
        <ele>284.6900000</ele>
        <time>2009-06-24T23:57:48Z</time>
      </trkpt>
      <trkpt lat="44.9530670" lon="-93.4877590">
        <ele>285.1700000</ele>
        <time>2009-06-24T23:57:49Z</time>
      </trkpt>
      <trkpt lat="44.9530940" lon="-93.4877000">
        <ele>285.6500000</ele>
        <time>2009-06-24T23:57:50Z</time>
      </trkpt>
      <trkpt lat="44.9531130" lon="-93.4876560">
        <ele>286.6100000</ele>
        <time>2009-06-24T23:57:51Z</time>
      </trkpt>
      <trkpt lat="44.9530810" lon="-93.4877280">
        <ele>285.6500000</ele>
        <time>2009-06-24T23:57:53Z</time>
      </trkpt>
      <trkpt lat="44.9530540" lon="-93.4877890">
        <ele>285.1700000</ele>
        <time>2009-06-24T23:57:54Z</time>
      </trkpt>
      <trkpt lat="44.9530190" lon="-93.4878680">
        <ele>285.1700000</ele>
        <time>2009-06-24T23:57:55Z</time>
      </trkpt>
      <trkpt lat="44.9529590" lon="-93.4880680">
        <ele>285.1700000</ele>
        <time>2009-06-24T23:57:56Z</time>
      </trkpt>
      <trkpt lat="44.9529500" lon="-93.4881770">
        <ele>285.1700000</ele>
        <time>2009-06-24T23:57:57Z</time>
      </trkpt>
      <trkpt lat="44.9529240" lon="-93.4884830">
        <ele>286.1300000</ele>
        <time>2009-06-24T23:58:00Z</time>
      </trkpt>
      <trkpt lat="44.9529220" lon="-93.4885040">
        <ele>286.1300000</ele>
        <time>2009-06-24T23:58:01Z</time>
      </trkpt>
      <trkpt lat="44.9528270" lon="-93.4885750">
        <ele>286.1300000</ele>
        <time>2009-06-24T23:58:03Z</time>
      </trkpt>
      <trkpt lat="44.9527630" lon="-93.4886230">
        <ele>285.6500000</ele>
        <time>2009-06-24T23:58:04Z</time>
      </trkpt>
      <trkpt lat="44.9527440" lon="-93.4886340">
        <ele>284.6900000</ele>
        <time>2009-06-24T23:58:05Z</time>
      </trkpt>
      <trkpt lat="44.9526660" lon="-93.4886450">
        <ele>284.2100000</ele>
        <time>2009-06-24T23:58:06Z</time>
      </trkpt>
      <trkpt lat="44.9525870" lon="-93.4886560">
        <ele>283.2500000</ele>
        <time>2009-06-24T23:58:07Z</time>
      </trkpt>
      <trkpt lat="44.9525090" lon="-93.4886670">
        <ele>281.8000000</ele>
        <time>2009-06-24T23:58:08Z</time>
      </trkpt>
      <trkpt lat="44.9524360" lon="-93.4886710">
        <ele>280.8400000</ele>
        <time>2009-06-24T23:58:09Z</time>
      </trkpt>
      <trkpt lat="44.9523590" lon="-93.4886450">
        <ele>279.8800000</ele>
        <time>2009-06-24T23:58:10Z</time>
      </trkpt>
      <trkpt lat="44.9522830" lon="-93.4886200">
        <ele>278.4400000</ele>
        <time>2009-06-24T23:58:11Z</time>
      </trkpt>
      <trkpt lat="44.9518640" lon="-93.4884890">
        <ele>278.4400000</ele>
        <time>2009-06-24T23:58:17Z</time>
      </trkpt>
      <trkpt lat="44.9518040" lon="-93.4884770">
        <ele>277.4800000</ele>
        <time>2009-06-24T23:58:18Z</time>
      </trkpt>
      <trkpt lat="44.9517480" lon="-93.4884660">
        <ele>277.9600000</ele>
        <time>2009-06-24T23:58:19Z</time>
      </trkpt>
      <trkpt lat="44.9512650" lon="-93.4885520">
        <ele>282.2800000</ele>
        <time>2009-06-24T23:58:29Z</time>
      </trkpt>
      <trkpt lat="44.9507260" lon="-93.4887740">
        <ele>285.6500000</ele>
        <time>2009-06-24T23:58:38Z</time>
      </trkpt>
      <trkpt lat="44.9506820" lon="-93.4888470">
        <ele>286.6100000</ele>
        <time>2009-06-24T23:58:39Z</time>
      </trkpt>
      <trkpt lat="44.9505000" lon="-93.4891500">
        <ele>291.9000000</ele>
        <time>2009-06-24T23:58:45Z</time>
      </trkpt>
      <trkpt lat="44.9504690" lon="-93.4892120">
        <ele>291.4200000</ele>
        <time>2009-06-24T23:58:46Z</time>
      </trkpt>
      <trkpt lat="44.9504420" lon="-93.4892920">
        <ele>292.3800000</ele>
        <time>2009-06-24T23:58:47Z</time>
      </trkpt>
      <trkpt lat="44.9502910" lon="-93.4897470">
        <ele>293.8200000</ele>
        <time>2009-06-24T23:58:53Z</time>
      </trkpt>
      <trkpt lat="44.9501910" lon="-93.4898300">
        <ele>293.8200000</ele>
        <time>2009-06-24T23:58:56Z</time>
      </trkpt>
      <trkpt lat="44.9501260" lon="-93.4898260">
        <ele>294.3000000</ele>
        <time>2009-06-24T23:58:57Z</time>
      </trkpt>
      <trkpt lat="44.9500630" lon="-93.4898230">
        <ele>292.8600000</ele>
        <time>2009-06-24T23:58:58Z</time>
      </trkpt>
      <trkpt lat="44.9500110" lon="-93.4898200">
        <ele>292.3800000</ele>
        <time>2009-06-24T23:58:59Z</time>
      </trkpt>
      <trkpt lat="44.9499720" lon="-93.4898180">
        <ele>291.4200000</ele>
        <time>2009-06-24T23:59:00Z</time>
      </trkpt>
      <trkpt lat="44.9496370" lon="-93.4897990">
        <ele>286.1300000</ele>
        <time>2009-06-24T23:59:10Z</time>
      </trkpt>
      <trkpt lat="44.9495340" lon="-93.4897930">
        <ele>284.6900000</ele>
        <time>2009-06-24T23:59:13Z</time>
      </trkpt>
      <trkpt lat="44.9494760" lon="-93.4899140">
        <ele>284.6900000</ele>
        <time>2009-06-24T23:59:14Z</time>
      </trkpt>
      <trkpt lat="44.9494670" lon="-93.4899900">
        <ele>284.2100000</ele>
        <time>2009-06-24T23:59:15Z</time>
      </trkpt>
      <trkpt lat="44.9494250" lon="-93.4903670">
        <ele>289.0100000</ele>
        <time>2009-06-24T23:59:23Z</time>
      </trkpt>
      <trkpt lat="44.9492890" lon="-93.4910210">
        <ele>292.3800000</ele>
        <time>2009-06-24T23:59:32Z</time>
      </trkpt>
      <trkpt lat="44.9489050" lon="-93.4918400">
        <ele>286.6100000</ele>
        <time>2009-06-24T23:59:44Z</time>
      </trkpt>
      <trkpt lat="44.9485590" lon="-93.4925520">
        <ele>283.7300000</ele>
        <time>2009-06-24T23:59:55Z</time>
      </trkpt>
      <trkpt lat="44.9484650" lon="-93.4926810">
        <ele>283.2500000</ele>
        <time>2009-06-24T23:59:57Z</time>
      </trkpt>
      <trkpt lat="44.9484150" lon="-93.4927430">
        <ele>283.7300000</ele>
        <time>2009-06-24T23:59:58Z</time>
      </trkpt>
      <trkpt lat="44.9479150" lon="-93.4932470">
        <ele>288.5300000</ele>
        <time>2009-06-25T00:00:06Z</time>
      </trkpt>
      <trkpt lat="44.9478760" lon="-93.4933350">
        <ele>289.4900000</ele>
        <time>2009-06-25T00:00:07Z</time>
      </trkpt>
      <trkpt lat="44.9478350" lon="-93.4934270">
        <ele>289.0100000</ele>
        <time>2009-06-25T00:00:08Z</time>
      </trkpt>
      <trkpt lat="44.9476980" lon="-93.4938690">
        <ele>288.5300000</ele>
        <time>2009-06-25T00:00:12Z</time>
      </trkpt>
      <trkpt lat="44.9477250" lon="-93.4940890">
        <ele>289.0100000</ele>
        <time>2009-06-25T00:00:14Z</time>
      </trkpt>
      <trkpt lat="44.9477430" lon="-93.4941980">
        <ele>289.4900000</ele>
        <time>2009-06-25T00:00:15Z</time>
      </trkpt>
      <trkpt lat="44.9477640" lon="-93.4943080">
        <ele>289.4900000</ele>
        <time>2009-06-25T00:00:16Z</time>
      </trkpt>
      <trkpt lat="44.9478440" lon="-93.4947380">
        <ele>289.4900000</ele>
        <time>2009-06-25T00:00:20Z</time>
      </trkpt>
      <trkpt lat="44.9479000" lon="-93.4948400">
        <ele>289.9700000</ele>
        <time>2009-06-25T00:00:21Z</time>
      </trkpt>
      <trkpt lat="44.9479590" lon="-93.4948790">
        <ele>289.9700000</ele>
        <time>2009-06-25T00:00:22Z</time>
      </trkpt>
      <trkpt lat="44.9480210" lon="-93.4949200">
        <ele>289.4900000</ele>
        <time>2009-06-25T00:00:23Z</time>
      </trkpt>
      <trkpt lat="44.9480830" lon="-93.4949620">
        <ele>289.4900000</ele>
        <time>2009-06-25T00:00:24Z</time>
      </trkpt>
      <trkpt lat="44.9481460" lon="-93.4950040">
        <ele>289.4900000</ele>
        <time>2009-06-25T00:00:25Z</time>
      </trkpt>
      <trkpt lat="44.9484040" lon="-93.4951760">
        <ele>289.4900000</ele>
        <time>2009-06-25T00:00:30Z</time>
      </trkpt>
      <trkpt lat="44.9489460" lon="-93.4958060">
        <ele>289.9700000</ele>
        <time>2009-06-25T00:00:41Z</time>
      </trkpt>
      <trkpt lat="44.9489880" lon="-93.4959090">
        <ele>289.4900000</ele>
        <time>2009-06-25T00:00:42Z</time>
      </trkpt>
      <trkpt lat="44.9490090" lon="-93.4960190">
        <ele>289.4900000</ele>
        <time>2009-06-25T00:00:43Z</time>
      </trkpt>
      <trkpt lat="44.9490320" lon="-93.4961290">
        <ele>289.0100000</ele>
        <time>2009-06-25T00:00:44Z</time>
      </trkpt>
      <trkpt lat="44.9490550" lon="-93.4962450">
        <ele>288.5300000</ele>
        <time>2009-06-25T00:00:45Z</time>
      </trkpt>
      <trkpt lat="44.9490680" lon="-93.4963620">
        <ele>288.5300000</ele>
        <time>2009-06-25T00:00:46Z</time>
      </trkpt>
      <trkpt lat="44.9490800" lon="-93.4964970">
        <ele>288.5300000</ele>
        <time>2009-06-25T00:00:47Z</time>
      </trkpt>
      <trkpt lat="44.9490930" lon="-93.4966360">
        <ele>288.0500000</ele>
        <time>2009-06-25T00:00:48Z</time>
      </trkpt>
      <trkpt lat="44.9491810" lon="-93.4976060">
        <ele>287.5700000</ele>
        <time>2009-06-25T00:00:57Z</time>
      </trkpt>
      <trkpt lat="44.9491890" lon="-93.4979340">
        <ele>288.0500000</ele>
        <time>2009-06-25T00:01:06Z</time>
      </trkpt>
      <trkpt lat="44.9492100" lon="-93.4980660">
        <ele>288.0500000</ele>
        <time>2009-06-25T00:01:18Z</time>
      </trkpt>
      <trkpt lat="44.9492400" lon="-93.4981160">
        <ele>287.5700000</ele>
        <time>2009-06-25T00:01:19Z</time>
      </trkpt>
      <trkpt lat="44.9492660" lon="-93.4981590">
        <ele>287.5700000</ele>
        <time>2009-06-25T00:01:20Z</time>
      </trkpt>
      <trkpt lat="44.9492870" lon="-93.4981940">
        <ele>287.5700000</ele>
        <time>2009-06-25T00:01:21Z</time>
      </trkpt>
      <trkpt lat="44.9493700" lon="-93.4981750">
        <ele>287.5700000</ele>
        <time>2009-06-25T00:01:22Z</time>
      </trkpt>
      <trkpt lat="44.9494120" lon="-93.4981200">
        <ele>287.0900000</ele>
        <time>2009-06-25T00:01:23Z</time>
      </trkpt>
      <trkpt lat="44.9494900" lon="-93.4980570">
        <ele>287.0900000</ele>
        <time>2009-06-25T00:01:24Z</time>
      </trkpt>
      <trkpt lat="44.9495820" lon="-93.4980230">
        <ele>286.6100000</ele>
        <time>2009-06-25T00:01:25Z</time>
      </trkpt>
      <trkpt lat="44.9496860" lon="-93.4979840">
        <ele>286.6100000</ele>
        <time>2009-06-25T00:01:26Z</time>
      </trkpt>
      <trkpt lat="44.9498030" lon="-93.4979450">
        <ele>286.6100000</ele>
        <time>2009-06-25T00:01:27Z</time>
      </trkpt>
      <trkpt lat="44.9499320" lon="-93.4979450">
        <ele>286.6100000</ele>
        <time>2009-06-25T00:01:28Z</time>
      </trkpt>
      <trkpt lat="44.9500670" lon="-93.4979560">
        <ele>286.6100000</ele>
        <time>2009-06-25T00:01:29Z</time>
      </trkpt>
      <trkpt lat="44.9501970" lon="-93.4980300">
        <ele>287.0900000</ele>
        <time>2009-06-25T00:01:30Z</time>
      </trkpt>
      <trkpt lat="44.9503320" lon="-93.4981080">
        <ele>288.0500000</ele>
        <time>2009-06-25T00:01:31Z</time>
      </trkpt>
      <trkpt lat="44.9504600" lon="-93.4982060">
        <ele>288.5300000</ele>
        <time>2009-06-25T00:01:32Z</time>
      </trkpt>
      <trkpt lat="44.9505850" lon="-93.4983070">
        <ele>289.0100000</ele>
        <time>2009-06-25T00:01:33Z</time>
      </trkpt>
      <trkpt lat="44.9512500" lon="-93.4987490">
        <ele>286.6100000</ele>
        <time>2009-06-25T00:01:38Z</time>
      </trkpt>
      <trkpt lat="44.9513900" lon="-93.4988130">
        <ele>285.6500000</ele>
        <time>2009-06-25T00:01:39Z</time>
      </trkpt>
      <trkpt lat="44.9515330" lon="-93.4988560">
        <ele>285.1700000</ele>
        <time>2009-06-25T00:01:40Z</time>
      </trkpt>
      <trkpt lat="44.9531250" lon="-93.4992360">
        <ele>283.2500000</ele>
        <time>2009-06-25T00:01:51Z</time>
      </trkpt>
      <trkpt lat="44.9545930" lon="-93.5000400">
        <ele>283.7300000</ele>
        <time>2009-06-25T00:02:02Z</time>
      </trkpt>
      <trkpt lat="44.9551460" lon="-93.5001550">
        <ele>283.7300000</ele>
        <time>2009-06-25T00:02:06Z</time>
      </trkpt>
      <trkpt lat="44.9552840" lon="-93.5001300">
        <ele>283.7300000</ele>
        <time>2009-06-25T00:02:07Z</time>
      </trkpt>
      <trkpt lat="44.9554210" lon="-93.5001050">
        <ele>284.2100000</ele>
        <time>2009-06-25T00:02:08Z</time>
      </trkpt>
      <trkpt lat="44.9555440" lon="-93.5000600">
        <ele>284.2100000</ele>
        <time>2009-06-25T00:02:09Z</time>
      </trkpt>
      <trkpt lat="44.9556650" lon="-93.4999790">
        <ele>284.6900000</ele>
        <time>2009-06-25T00:02:10Z</time>
      </trkpt>
      <trkpt lat="44.9557840" lon="-93.4999000">
        <ele>284.6900000</ele>
        <time>2009-06-25T00:02:11Z</time>
      </trkpt>
      <trkpt lat="44.9558970" lon="-93.4998200">
        <ele>284.6900000</ele>
        <time>2009-06-25T00:02:12Z</time>
      </trkpt>
      <trkpt lat="44.9560030" lon="-93.4997180">
        <ele>285.1700000</ele>
        <time>2009-06-25T00:02:13Z</time>
      </trkpt>
      <trkpt lat="44.9561070" lon="-93.4996180">
        <ele>285.1700000</ele>
        <time>2009-06-25T00:02:14Z</time>
      </trkpt>
      <trkpt lat="44.9575820" lon="-93.4981960">
        <ele>285.6500000</ele>
        <time>2009-06-25T00:02:28Z</time>
      </trkpt>
      <trkpt lat="44.9583280" lon="-93.4974990">
        <ele>287.0900000</ele>
        <time>2009-06-25T00:02:35Z</time>
      </trkpt>
      <trkpt lat="44.9594260" lon="-93.4970750">
        <ele>287.5700000</ele>
        <time>2009-06-25T00:02:45Z</time>
      </trkpt>
      <trkpt lat="44.9607540" lon="-93.4969680">
        <ele>290.9400000</ele>
        <time>2009-06-25T00:02:56Z</time>
      </trkpt>
      <trkpt lat="44.9622270" lon="-93.4969900">
        <ele>291.9000000</ele>
        <time>2009-06-25T00:03:10Z</time>
      </trkpt>
      <trkpt lat="44.9630470" lon="-93.4969860">
        <ele>292.8600000</ele>
        <time>2009-06-25T00:03:23Z</time>
      </trkpt>
      <trkpt lat="44.9636560" lon="-93.4967660">
        <ele>295.2600000</ele>
        <time>2009-06-25T00:03:33Z</time>
      </trkpt>
      <trkpt lat="44.9637340" lon="-93.4966100">
        <ele>295.7400000</ele>
        <time>2009-06-25T00:03:35Z</time>
      </trkpt>
      <trkpt lat="44.9637750" lon="-93.4965530">
        <ele>295.7400000</ele>
        <time>2009-06-25T00:03:36Z</time>
      </trkpt>
      <trkpt lat="44.9638150" lon="-93.4964970">
        <ele>295.2600000</ele>
        <time>2009-06-25T00:03:37Z</time>
      </trkpt>
      <trkpt lat="44.9638230" lon="-93.4964240">
        <ele>295.7400000</ele>
        <time>2009-06-25T00:03:38Z</time>
      </trkpt>
      <trkpt lat="44.9638230" lon="-93.4963130">
        <ele>296.2200000</ele>
        <time>2009-06-25T00:03:39Z</time>
      </trkpt>
      <trkpt lat="44.9638230" lon="-93.4961870">
        <ele>296.7000000</ele>
        <time>2009-06-25T00:03:40Z</time>
      </trkpt>
      <trkpt lat="44.9637800" lon="-93.4947840">
        <ele>297.1800000</ele>
        <time>2009-06-25T00:03:48Z</time>
      </trkpt>
      <trkpt lat="44.9635330" lon="-93.4925890">
        <ele>296.7000000</ele>
        <time>2009-06-25T00:03:58Z</time>
      </trkpt>
      <trkpt lat="44.9631620" lon="-93.4915920">
        <ele>294.7800000</ele>
        <time>2009-06-25T00:04:04Z</time>
      </trkpt>
      <trkpt lat="44.9631270" lon="-93.4915110">
        <ele>294.7800000</ele>
        <time>2009-06-25T00:04:05Z</time>
      </trkpt>
      <trkpt lat="44.9631170" lon="-93.4914870">
        <ele>293.8200000</ele>
        <time>2009-06-25T00:04:06Z</time>
      </trkpt>
      <trkpt lat="44.9631110" lon="-93.4914750">
        <ele>293.8200000</ele>
        <time>2009-06-25T00:04:07Z</time>
      </trkpt>
      <trkpt lat="44.9629430" lon="-93.4916340">
        <ele>293.3400000</ele>
        <time>2009-06-25T00:04:08Z</time>
      </trkpt>
      <trkpt lat="44.9627670" lon="-93.4917990">
        <ele>294.3000000</ele>
        <time>2009-06-25T00:04:12Z</time>
      </trkpt>
      <trkpt lat="44.9627990" lon="-93.4922620">
        <ele>295.7400000</ele>
        <time>2009-06-25T00:04:22Z</time>
      </trkpt>
      <trkpt lat="44.9628340" lon="-93.4923570">
        <ele>295.7400000</ele>
        <time>2009-06-25T00:04:24Z</time>
      </trkpt>
      <trkpt lat="44.9634420" lon="-93.4922950">
        <ele>296.2200000</ele>
        <time>2009-06-25T00:04:29Z</time>
      </trkpt>
      <trkpt lat="44.9634620" lon="-93.4923550">
        <ele>295.7400000</ele>
        <time>2009-06-25T00:04:30Z</time>
      </trkpt>
      <trkpt lat="44.9634790" lon="-93.4924070">
        <ele>295.7400000</ele>
        <time>2009-06-25T00:04:31Z</time>
      </trkpt>
      <trkpt lat="44.9634910" lon="-93.4924420">
        <ele>295.2600000</ele>
        <time>2009-06-25T00:04:32Z</time>
      </trkpt>
      <trkpt lat="44.9635020" lon="-93.4924770">
        <ele>295.2600000</ele>
        <time>2009-06-25T00:04:33Z</time>
      </trkpt>
      <trkpt lat="44.9635290" lon="-93.4925710">
        <ele>295.2600000</ele>
        <time>2009-06-25T00:04:34Z</time>
      </trkpt>
      <trkpt lat="44.9635420" lon="-93.4926340">
        <ele>295.2600000</ele>
        <time>2009-06-25T00:04:35Z</time>
      </trkpt>
      <trkpt lat="44.9635350" lon="-93.4926020">
        <ele>293.8200000</ele>
        <time>2009-06-25T00:04:36Z</time>
      </trkpt>
      <trkpt lat="44.9630600" lon="-93.4926890">
        <ele>294.7800000</ele>
        <time>2009-06-25T00:04:39Z</time>
      </trkpt>
      <trkpt lat="44.9627690" lon="-93.4923600">
        <ele>296.7000000</ele>
        <time>2009-06-25T00:04:49Z</time>
      </trkpt>
      <trkpt lat="44.9626720" lon="-93.4919160">
        <ele>294.7800000</ele>
        <time>2009-06-25T00:04:59Z</time>
      </trkpt>
      <trkpt lat="44.9624830" lon="-93.4919090">
        <ele>293.3400000</ele>
        <time>2009-06-25T00:05:04Z</time>
      </trkpt>
      <trkpt lat="44.9617370" lon="-93.4925200">
        <ele>288.0500000</ele>
        <time>2009-06-25T00:05:13Z</time>
      </trkpt>
      <trkpt lat="44.9616670" lon="-93.4925880">
        <ele>287.5700000</ele>
        <time>2009-06-25T00:05:14Z</time>
      </trkpt>
      <trkpt lat="44.9615240" lon="-93.4928910">
        <ele>290.9400000</ele>
        <time>2009-06-25T00:05:22Z</time>
      </trkpt>
      <trkpt lat="44.9615140" lon="-93.4929320">
        <ele>291.9000000</ele>
        <time>2009-06-25T00:05:23Z</time>
      </trkpt>
      <trkpt lat="44.9612860" lon="-93.4933860">
        <ele>290.9400000</ele>
        <time>2009-06-25T00:05:36Z</time>
      </trkpt>
      <trkpt lat="44.9609950" lon="-93.4935350">
        <ele>289.9700000</ele>
        <time>2009-06-25T00:05:42Z</time>
      </trkpt>
      <trkpt lat="44.9604820" lon="-93.4942910">
        <ele>296.7000000</ele>
        <time>2009-06-25T00:05:51Z</time>
      </trkpt>
      <trkpt lat="44.9603940" lon="-93.4946110">
        <ele>298.1500000</ele>
        <time>2009-06-25T00:05:54Z</time>
      </trkpt>
      <trkpt lat="44.9598810" lon="-93.4952430">
        <ele>294.7800000</ele>
        <time>2009-06-25T00:06:03Z</time>
      </trkpt>
      <trkpt lat="44.9597780" lon="-93.4952590">
        <ele>295.2600000</ele>
        <time>2009-06-25T00:06:05Z</time>
      </trkpt>
      <trkpt lat="44.9595330" lon="-93.4952160">
        <ele>293.8200000</ele>
        <time>2009-06-25T00:06:13Z</time>
      </trkpt>
      <trkpt lat="44.9595220" lon="-93.4950010">
        <ele>293.8200000</ele>
        <time>2009-06-25T00:06:17Z</time>
      </trkpt>
      <trkpt lat="44.9595250" lon="-93.4948370">
        <ele>294.3000000</ele>
        <time>2009-06-25T00:06:19Z</time>
      </trkpt>
      <trkpt lat="44.9595730" lon="-93.4945060">
        <ele>294.7800000</ele>
        <time>2009-06-25T00:06:28Z</time>
      </trkpt>
      <trkpt lat="44.9596160" lon="-93.4943810">
        <ele>296.7000000</ele>
        <time>2009-06-25T00:06:44Z</time>
      </trkpt>
      <trkpt lat="44.9596230" lon="-93.4941350">
        <ele>297.1800000</ele>
        <time>2009-06-25T00:06:53Z</time>
      </trkpt>
      <trkpt lat="44.9597830" lon="-93.4941500">
        <ele>296.2200000</ele>
        <time>2009-06-25T00:07:00Z</time>
      </trkpt>
      <trkpt lat="44.9596250" lon="-93.4945440">
        <ele>293.3400000</ele>
        <time>2009-06-25T00:07:09Z</time>
      </trkpt>
      <trkpt lat="44.9595990" lon="-93.4947030">
        <ele>293.3400000</ele>
        <time>2009-06-25T00:07:11Z</time>
      </trkpt>
      <trkpt lat="44.9595660" lon="-93.4950650">
        <ele>293.3400000</ele>
        <time>2009-06-25T00:07:15Z</time>
      </trkpt>
      <trkpt lat="44.9597020" lon="-93.4952110">
        <ele>293.8200000</ele>
        <time>2009-06-25T00:07:19Z</time>
      </trkpt>
      <trkpt lat="44.9598520" lon="-93.4951850">
        <ele>293.8200000</ele>
        <time>2009-06-25T00:07:21Z</time>
      </trkpt>
      <trkpt lat="44.9603720" lon="-93.4947000">
        <ele>298.1500000</ele>
        <time>2009-06-25T00:07:28Z</time>
      </trkpt>
      <trkpt lat="44.9604280" lon="-93.4945350">
        <ele>297.1800000</ele>
        <time>2009-06-25T00:07:30Z</time>
      </trkpt>
      <trkpt lat="44.9606140" lon="-93.4939730">
        <ele>295.7400000</ele>
        <time>2009-06-25T00:07:36Z</time>
      </trkpt>
      <trkpt lat="44.9608420" lon="-93.4936340">
        <ele>293.8200000</ele>
        <time>2009-06-25T00:07:40Z</time>
      </trkpt>
      <trkpt lat="44.9612140" lon="-93.4933580">
        <ele>291.9000000</ele>
        <time>2009-06-25T00:07:50Z</time>
      </trkpt>
      <trkpt lat="44.9615010" lon="-93.4929660">
        <ele>292.8600000</ele>
        <time>2009-06-25T00:07:56Z</time>
      </trkpt>
      <trkpt lat="44.9618630" lon="-93.4924290">
        <ele>292.8600000</ele>
        <time>2009-06-25T00:08:01Z</time>
      </trkpt>
      <trkpt lat="44.9627100" lon="-93.4917790">
        <ele>292.8600000</ele>
        <time>2009-06-25T00:08:11Z</time>
      </trkpt>
      <trkpt lat="44.9628280" lon="-93.4917240">
        <ele>289.0100000</ele>
        <time>2009-06-25T00:08:18Z</time>
      </trkpt>
      <trkpt lat="44.9630890" lon="-93.4914240">
        <ele>288.0500000</ele>
        <time>2009-06-25T00:08:31Z</time>
      </trkpt>
      <trkpt lat="44.9630600" lon="-93.4913570">
        <ele>288.0500000</ele>
        <time>2009-06-25T00:08:32Z</time>
      </trkpt>
      <trkpt lat="44.9630190" lon="-93.4912650">
        <ele>288.0500000</ele>
        <time>2009-06-25T00:08:33Z</time>
      </trkpt>
      <trkpt lat="44.9625980" lon="-93.4903030">
        <ele>289.4900000</ele>
        <time>2009-06-25T00:08:39Z</time>
      </trkpt>
      <trkpt lat="44.9615860" lon="-93.4879890">
        <ele>290.4600000</ele>
        <time>2009-06-25T00:08:50Z</time>
      </trkpt>
      <trkpt lat="44.9601920" lon="-93.4847970">
        <ele>295.2600000</ele>
        <time>2009-06-25T00:09:05Z</time>
      </trkpt>
      <trkpt lat="44.9588840" lon="-93.4819050">
        <ele>299.5900000</ele>
        <time>2009-06-25T00:09:19Z</time>
      </trkpt>
      <trkpt lat="44.9586830" lon="-93.4815580">
        <ele>301.0300000</ele>
        <time>2009-06-25T00:09:23Z</time>
      </trkpt>
      <trkpt lat="44.9585750" lon="-93.4816730">
        <ele>301.0300000</ele>
        <time>2009-06-25T00:09:24Z</time>
      </trkpt>
      <trkpt lat="44.9585050" lon="-93.4816700">
        <ele>301.0300000</ele>
        <time>2009-06-25T00:09:25Z</time>
      </trkpt>
      <trkpt lat="44.9578460" lon="-93.4816430">
        <ele>303.9100000</ele>
        <time>2009-06-25T00:09:34Z</time>
      </trkpt>
      <trkpt lat="44.9570630" lon="-93.4816110">
        <ele>300.0700000</ele>
        <time>2009-06-25T00:09:44Z</time>
      </trkpt>
      <trkpt lat="44.9566800" lon="-93.4815950">
        <ele>300.5500000</ele>
        <time>2009-06-25T00:09:52Z</time>
      </trkpt>
      <trkpt lat="44.9565910" lon="-93.4816270">
        <ele>300.5500000</ele>
        <time>2009-06-25T00:09:54Z</time>
      </trkpt>
      <trkpt lat="44.9565700" lon="-93.4816680">
        <ele>300.0700000</ele>
        <time>2009-06-25T00:09:56Z</time>
      </trkpt>
      <trkpt lat="44.9565700" lon="-93.4817190">
        <ele>299.5900000</ele>
        <time>2009-06-25T00:09:57Z</time>
      </trkpt>
      <trkpt lat="44.9565700" lon="-93.4817900">
        <ele>299.5900000</ele>
        <time>2009-06-25T00:09:58Z</time>
      </trkpt>
      <trkpt lat="44.9565700" lon="-93.4818590">
        <ele>299.5900000</ele>
        <time>2009-06-25T00:09:59Z</time>
      </trkpt>
      <trkpt lat="44.9565700" lon="-93.4819300">
        <ele>299.1100000</ele>
        <time>2009-06-25T00:10:00Z</time>
      </trkpt>
      <trkpt lat="44.9565700" lon="-93.4820150">
        <ele>299.1100000</ele>
        <time>2009-06-25T00:10:01Z</time>
      </trkpt>
      <trkpt lat="44.9565700" lon="-93.4821070">
        <ele>299.1100000</ele>
        <time>2009-06-25T00:10:02Z</time>
      </trkpt>
      <trkpt lat="44.9565700" lon="-93.4822150">
        <ele>298.6300000</ele>
        <time>2009-06-25T00:10:03Z</time>
      </trkpt>
      <trkpt lat="44.9565700" lon="-93.4824080">
        <ele>296.7000000</ele>
        <time>2009-06-25T00:10:05Z</time>
      </trkpt>
      <trkpt lat="44.9565700" lon="-93.4824880">
        <ele>296.2200000</ele>
        <time>2009-06-25T00:10:06Z</time>
      </trkpt>
      <trkpt lat="44.9565700" lon="-93.4825450">
        <ele>296.2200000</ele>
        <time>2009-06-25T00:10:07Z</time>
      </trkpt>
      <trkpt lat="44.9564980" lon="-93.4825480">
        <ele>295.7400000</ele>
        <time>2009-06-25T00:10:08Z</time>
      </trkpt>
      <trkpt lat="44.9564460" lon="-93.4825550">
        <ele>295.2600000</ele>
        <time>2009-06-25T00:10:09Z</time>
      </trkpt>
      <trkpt lat="44.9563930" lon="-93.4825620">
        <ele>295.2600000</ele>
        <time>2009-06-25T00:10:10Z</time>
      </trkpt>
      <trkpt lat="44.9563380" lon="-93.4825690">
        <ele>294.7800000</ele>
        <time>2009-06-25T00:10:11Z</time>
      </trkpt>
      <trkpt lat="44.9559560" lon="-93.4826200">
        <ele>293.8200000</ele>
        <time>2009-06-25T00:10:19Z</time>
      </trkpt>
      <trkpt lat="44.9559040" lon="-93.4826150">
        <ele>293.8200000</ele>
        <time>2009-06-25T00:10:20Z</time>
      </trkpt>
      <trkpt lat="44.9558490" lon="-93.4825930">
        <ele>293.3400000</ele>
        <time>2009-06-25T00:10:21Z</time>
      </trkpt>
      <trkpt lat="44.9557290" lon="-93.4825450">
        <ele>292.3800000</ele>
        <time>2009-06-25T00:10:23Z</time>
      </trkpt>
      <trkpt lat="44.9556680" lon="-93.4825820">
        <ele>291.9000000</ele>
        <time>2009-06-25T00:10:24Z</time>
      </trkpt>
      <trkpt lat="44.9556080" lon="-93.4826430">
        <ele>291.9000000</ele>
        <time>2009-06-25T00:10:25Z</time>
      </trkpt>
      <trkpt lat="44.9555500" lon="-93.4827000">
        <ele>290.9400000</ele>
        <time>2009-06-25T00:10:26Z</time>
      </trkpt>
      <trkpt lat="44.9555400" lon="-93.4827700">
        <ele>290.9400000</ele>
        <time>2009-06-25T00:10:27Z</time>
      </trkpt>
      <trkpt lat="44.9555400" lon="-93.4828520">
        <ele>289.9700000</ele>
        <time>2009-06-25T00:10:28Z</time>
      </trkpt>
      <trkpt lat="44.9555400" lon="-93.4829380">
        <ele>289.4900000</ele>
        <time>2009-06-25T00:10:29Z</time>
      </trkpt>
      <trkpt lat="44.9555400" lon="-93.4830090">
        <ele>289.0100000</ele>
        <time>2009-06-25T00:10:30Z</time>
      </trkpt>
      <trkpt lat="44.9555690" lon="-93.4830770">
        <ele>288.5300000</ele>
        <time>2009-06-25T00:10:31Z</time>
      </trkpt>
      <trkpt lat="44.9555990" lon="-93.4831470">
        <ele>288.5300000</ele>
        <time>2009-06-25T00:10:32Z</time>
      </trkpt>
      <trkpt lat="44.9560940" lon="-93.4842880">
        <ele>282.2800000</ele>
        <time>2009-06-25T00:10:47Z</time>
      </trkpt>
      <trkpt lat="44.9561390" lon="-93.4843280">
        <ele>281.8000000</ele>
        <time>2009-06-25T00:10:48Z</time>
      </trkpt>
      <trkpt lat="44.9561940" lon="-93.4843700">
        <ele>282.2800000</ele>
        <time>2009-06-25T00:10:49Z</time>
      </trkpt>
      <trkpt lat="44.9562480" lon="-93.4844100">
        <ele>282.2800000</ele>
        <time>2009-06-25T00:10:50Z</time>
      </trkpt>
      <trkpt lat="44.9563040" lon="-93.4844310">
        <ele>282.2800000</ele>
        <time>2009-06-25T00:10:51Z</time>
      </trkpt>
      <trkpt lat="44.9563570" lon="-93.4844390">
        <ele>281.8000000</ele>
        <time>2009-06-25T00:10:52Z</time>
      </trkpt>
      <trkpt lat="44.9564050" lon="-93.4844460">
        <ele>281.8000000</ele>
        <time>2009-06-25T00:10:53Z</time>
      </trkpt>
      <trkpt lat="44.9564520" lon="-93.4844530">
        <ele>282.2800000</ele>
        <time>2009-06-25T00:10:54Z</time>
      </trkpt>
      <trkpt lat="44.9564890" lon="-93.4844580">
        <ele>282.2800000</ele>
        <time>2009-06-25T00:10:55Z</time>
      </trkpt>
      <trkpt lat="44.9565180" lon="-93.4844620">
        <ele>282.7700000</ele>
        <time>2009-06-25T00:10:56Z</time>
      </trkpt>
      <trkpt lat="44.9565700" lon="-93.4843490">
        <ele>283.2500000</ele>
        <time>2009-06-25T00:10:57Z</time>
      </trkpt>
      <trkpt lat="44.9565700" lon="-93.4842870">
        <ele>284.2100000</ele>
        <time>2009-06-25T00:10:58Z</time>
      </trkpt>
      <trkpt lat="44.9565700" lon="-93.4842100">
        <ele>284.6900000</ele>
        <time>2009-06-25T00:10:59Z</time>
      </trkpt>
      <trkpt lat="44.9565700" lon="-93.4831610">
        <ele>291.9000000</ele>
        <time>2009-06-25T00:11:08Z</time>
      </trkpt>
      <trkpt lat="44.9565700" lon="-93.4817050">
        <ele>296.7000000</ele>
        <time>2009-06-25T00:11:20Z</time>
      </trkpt>
      <trkpt lat="44.9566180" lon="-93.4816130">
        <ele>297.1800000</ele>
        <time>2009-06-25T00:11:21Z</time>
      </trkpt>
      <trkpt lat="44.9566800" lon="-93.4815950">
        <ele>297.6700000</ele>
        <time>2009-06-25T00:11:22Z</time>
      </trkpt>
      <trkpt lat="44.9567470" lon="-93.4815980">
        <ele>298.6300000</ele>
        <time>2009-06-25T00:11:23Z</time>
      </trkpt>
      <trkpt lat="44.9568220" lon="-93.4816010">
        <ele>299.1100000</ele>
        <time>2009-06-25T00:11:24Z</time>
      </trkpt>
      <trkpt lat="44.9568950" lon="-93.4816040">
        <ele>299.1100000</ele>
        <time>2009-06-25T00:11:25Z</time>
      </trkpt>
      <trkpt lat="44.9569740" lon="-93.4816070">
        <ele>299.1100000</ele>
        <time>2009-06-25T00:11:26Z</time>
      </trkpt>
      <trkpt lat="44.9570640" lon="-93.4816110">
        <ele>299.5900000</ele>
        <time>2009-06-25T00:11:27Z</time>
      </trkpt>
      <trkpt lat="44.9571600" lon="-93.4816150">
        <ele>300.5500000</ele>
        <time>2009-06-25T00:11:28Z</time>
      </trkpt>
      <trkpt lat="44.9582540" lon="-93.4816590">
        <ele>301.0300000</ele>
        <time>2009-06-25T00:11:40Z</time>
      </trkpt>
      <trkpt lat="44.9584110" lon="-93.4816660">
        <ele>298.6300000</ele>
        <time>2009-06-25T00:11:47Z</time>
      </trkpt>
      <trkpt lat="44.9585790" lon="-93.4816730">
        <ele>296.7000000</ele>
        <time>2009-06-25T00:11:58Z</time>
      </trkpt>
      <trkpt lat="44.9586990" lon="-93.4816780">
        <ele>297.6700000</ele>
        <time>2009-06-25T00:12:03Z</time>
      </trkpt>
      <trkpt lat="44.9587670" lon="-93.4816800">
        <ele>297.6700000</ele>
        <time>2009-06-25T00:12:04Z</time>
      </trkpt>
      <trkpt lat="44.9588110" lon="-93.4817740">
        <ele>298.1500000</ele>
        <time>2009-06-25T00:12:05Z</time>
      </trkpt>
      <trkpt lat="44.9588690" lon="-93.4818790">
        <ele>298.1500000</ele>
        <time>2009-06-25T00:12:06Z</time>
      </trkpt>
      <trkpt lat="44.9589420" lon="-93.4820100">
        <ele>297.6700000</ele>
        <time>2009-06-25T00:12:07Z</time>
      </trkpt>
      <trkpt lat="44.9590190" lon="-93.4821710">
        <ele>297.6700000</ele>
        <time>2009-06-25T00:12:08Z</time>
      </trkpt>
      <trkpt lat="44.9596820" lon="-93.4836860">
        <ele>296.7000000</ele>
        <time>2009-06-25T00:12:15Z</time>
      </trkpt>
      <trkpt lat="44.9610780" lon="-93.4867970">
        <ele>290.9400000</ele>
        <time>2009-06-25T00:12:30Z</time>
      </trkpt>
      <trkpt lat="44.9626830" lon="-93.4904950">
        <ele>285.1700000</ele>
        <time>2009-06-25T00:12:49Z</time>
      </trkpt>
      <trkpt lat="44.9636520" lon="-93.4931860">
        <ele>286.1300000</ele>
        <time>2009-06-25T00:13:02Z</time>
      </trkpt>
      <trkpt lat="44.9637800" lon="-93.4949120">
        <ele>284.2100000</ele>
        <time>2009-06-25T00:13:10Z</time>
      </trkpt>
      <trkpt lat="44.9637800" lon="-93.4950580">
        <ele>284.2100000</ele>
        <time>2009-06-25T00:13:11Z</time>
      </trkpt>
      <trkpt lat="44.9637800" lon="-93.4951840">
        <ele>284.2100000</ele>
        <time>2009-06-25T00:13:12Z</time>
      </trkpt>
      <trkpt lat="44.9637800" lon="-93.4952870">
        <ele>284.2100000</ele>
        <time>2009-06-25T00:13:17Z</time>
      </trkpt>
      <trkpt lat="44.9637800" lon="-93.4954240">
        <ele>282.7700000</ele>
        <time>2009-06-25T00:13:32Z</time>
      </trkpt>
      <trkpt lat="44.9637980" lon="-93.4958670">
        <ele>283.2500000</ele>
        <time>2009-06-25T00:13:39Z</time>
      </trkpt>
      <trkpt lat="44.9638300" lon="-93.4960270">
        <ele>286.1300000</ele>
        <time>2009-06-25T00:13:47Z</time>
      </trkpt>
      <trkpt lat="44.9638300" lon="-93.4960270">
        <ele>294.3000000</ele>
        <time>2009-06-25T00:14:08Z</time>
      </trkpt>
      <trkpt lat="44.9638300" lon="-93.4960270">
        <ele>299.5900000</ele>
        <time>2009-06-25T00:14:29Z</time>
      </trkpt>
      <trkpt lat="44.9639200" lon="-93.4962080">
        <ele>294.7800000</ele>
        <time>2009-06-25T00:14:46Z</time>
      </trkpt>
      <trkpt lat="44.9639590" lon="-93.4962870">
        <ele>295.7400000</ele>
        <time>2009-06-25T00:14:47Z</time>
      </trkpt>
      <trkpt lat="44.9639960" lon="-93.4963580">
        <ele>295.7400000</ele>
        <time>2009-06-25T00:14:48Z</time>
      </trkpt>
      <trkpt lat="44.9640380" lon="-93.4963920">
        <ele>295.7400000</ele>
        <time>2009-06-25T00:14:49Z</time>
      </trkpt>
      <trkpt lat="44.9640670" lon="-93.4964150">
        <ele>296.2200000</ele>
        <time>2009-06-25T00:14:50Z</time>
      </trkpt>
      <trkpt lat="44.9640670" lon="-93.4964150">
        <ele>296.2200000</ele>
        <time>2009-06-25T00:14:51Z</time>
      </trkpt>
      <trkpt lat="44.9640670" lon="-93.4964150">
        <ele>298.1500000</ele>
        <time>2009-06-25T00:15:11Z</time>
      </trkpt>
      <trkpt lat="44.9640670" lon="-93.4964150">
        <ele>297.6700000</ele>
        <time>2009-06-25T00:15:42Z</time>
      </trkpt>
      <trkpt lat="44.9642260" lon="-93.4965570">
        <ele>299.1100000</ele>
        <time>2009-06-25T00:15:59Z</time>
      </trkpt>
      <trkpt lat="44.9642790" lon="-93.4966460">
        <ele>299.1100000</ele>
        <time>2009-06-25T00:16:00Z</time>
      </trkpt>
      <trkpt lat="44.9643380" lon="-93.4967430">
        <ele>299.1100000</ele>
        <time>2009-06-25T00:16:01Z</time>
      </trkpt>
      <trkpt lat="44.9646590" lon="-93.4979360">
        <ele>291.9000000</ele>
        <time>2009-06-25T00:16:08Z</time>
      </trkpt>
      <trkpt lat="44.9653280" lon="-93.4999280">
        <ele>284.6900000</ele>
        <time>2009-06-25T00:16:18Z</time>
      </trkpt>
      <trkpt lat="44.9660590" lon="-93.5021920">
        <ele>285.6500000</ele>
        <time>2009-06-25T00:16:30Z</time>
      </trkpt>
      <trkpt lat="44.9665950" lon="-93.5042550">
        <ele>285.6500000</ele>
        <time>2009-06-25T00:16:42Z</time>
      </trkpt>
      <trkpt lat="44.9666120" lon="-93.5042960">
        <ele>285.6500000</ele>
        <time>2009-06-25T00:16:43Z</time>
      </trkpt>
      <trkpt lat="44.9666930" lon="-93.5043170">
        <ele>285.6500000</ele>
        <time>2009-06-25T00:16:44Z</time>
      </trkpt>
      <trkpt lat="44.9667700" lon="-93.5043360">
        <ele>285.6500000</ele>
        <time>2009-06-25T00:16:45Z</time>
      </trkpt>
      <trkpt lat="44.9668500" lon="-93.5043220">
        <ele>285.6500000</ele>
        <time>2009-06-25T00:16:46Z</time>
      </trkpt>
      <trkpt lat="44.9669510" lon="-93.5042950">
        <ele>285.1700000</ele>
        <time>2009-06-25T00:16:47Z</time>
      </trkpt>
      <trkpt lat="44.9672900" lon="-93.5042040">
        <ele>285.1700000</ele>
        <time>2009-06-25T00:16:50Z</time>
      </trkpt>
      <trkpt lat="44.9674020" lon="-93.5041750">
        <ele>285.1700000</ele>
        <time>2009-06-25T00:16:51Z</time>
      </trkpt>
      <trkpt lat="44.9674870" lon="-93.5044060">
        <ele>285.1700000</ele>
        <time>2009-06-25T00:16:52Z</time>
      </trkpt>
      <trkpt lat="44.9675280" lon="-93.5045690">
        <ele>285.1700000</ele>
        <time>2009-06-25T00:16:53Z</time>
      </trkpt>
      <trkpt lat="44.9675740" lon="-93.5047510">
        <ele>285.1700000</ele>
        <time>2009-06-25T00:16:54Z</time>
      </trkpt>
      <trkpt lat="44.9676220" lon="-93.5049450">
        <ele>285.1700000</ele>
        <time>2009-06-25T00:16:55Z</time>
      </trkpt>
      <trkpt lat="44.9676710" lon="-93.5051390">
        <ele>285.1700000</ele>
        <time>2009-06-25T00:16:56Z</time>
      </trkpt>
      <trkpt lat="44.9684210" lon="-93.5081420">
        <ele>284.2100000</ele>
        <time>2009-06-25T00:17:11Z</time>
      </trkpt>
      <trkpt lat="44.9688580" lon="-93.5099660">
        <ele>283.7300000</ele>
        <time>2009-06-25T00:17:23Z</time>
      </trkpt>
      <trkpt lat="44.9690330" lon="-93.5107330">
        <ele>285.6500000</ele>
        <time>2009-06-25T00:17:32Z</time>
      </trkpt>
      <trkpt lat="44.9690650" lon="-93.5108700">
        <ele>292.3800000</ele>
        <time>2009-06-25T00:17:44Z</time>
      </trkpt>
      <trkpt lat="44.9691220" lon="-93.5111200">
        <ele>296.2200000</ele>
        <time>2009-06-25T00:17:54Z</time>
      </trkpt>
      <trkpt lat="44.9691610" lon="-93.5112890">
        <ele>292.3800000</ele>
        <time>2009-06-25T00:18:07Z</time>
      </trkpt>
      <trkpt lat="44.9692250" lon="-93.5115700">
        <ele>291.4200000</ele>
        <time>2009-06-25T00:18:18Z</time>
      </trkpt>
      <trkpt lat="44.9694280" lon="-93.5126230">
        <ele>291.4200000</ele>
        <time>2009-06-25T00:18:28Z</time>
      </trkpt>
      <trkpt lat="44.9695970" lon="-93.5135070">
        <ele>290.4600000</ele>
        <time>2009-06-25T00:18:40Z</time>
      </trkpt>
      <trkpt lat="44.9697470" lon="-93.5142230">
        <ele>288.5300000</ele>
        <time>2009-06-25T00:18:49Z</time>
      </trkpt>
      <trkpt lat="44.9700760" lon="-93.5157520">
        <ele>286.1300000</ele>
        <time>2009-06-25T00:19:04Z</time>
      </trkpt>
      <trkpt lat="44.9703230" lon="-93.5170660">
        <ele>286.6100000</ele>
        <time>2009-06-25T00:19:17Z</time>
      </trkpt>
      <trkpt lat="44.9703460" lon="-93.5175750">
        <ele>286.6100000</ele>
        <time>2009-06-25T00:19:25Z</time>
      </trkpt>
      <trkpt lat="44.9704720" lon="-93.5191200">
        <ele>286.6100000</ele>
        <time>2009-06-25T00:19:36Z</time>
      </trkpt>
      <trkpt lat="44.9704750" lon="-93.5213090">
        <ele>291.9000000</ele>
        <time>2009-06-25T00:19:51Z</time>
      </trkpt>
      <trkpt lat="44.9704750" lon="-93.5226140">
        <ele>294.7800000</ele>
        <time>2009-06-25T00:20:02Z</time>
      </trkpt>
      <trkpt lat="44.9703920" lon="-93.5226750">
        <ele>295.2600000</ele>
        <time>2009-06-25T00:20:07Z</time>
      </trkpt>
      <trkpt lat="44.9703340" lon="-93.5226820">
        <ele>295.2600000</ele>
        <time>2009-06-25T00:20:08Z</time>
      </trkpt>
      <trkpt lat="44.9702600" lon="-93.5226910">
        <ele>295.2600000</ele>
        <time>2009-06-25T00:20:09Z</time>
      </trkpt>
      <trkpt lat="44.9701810" lon="-93.5227010">
        <ele>294.7800000</ele>
        <time>2009-06-25T00:20:10Z</time>
      </trkpt>
      <trkpt lat="44.9701040" lon="-93.5227210">
        <ele>294.3000000</ele>
        <time>2009-06-25T00:20:11Z</time>
      </trkpt>
      <trkpt lat="44.9700120" lon="-93.5227840">
        <ele>294.3000000</ele>
        <time>2009-06-25T00:20:13Z</time>
      </trkpt>
      <trkpt lat="44.9699730" lon="-93.5228230">
        <ele>294.3000000</ele>
        <time>2009-06-25T00:20:14Z</time>
      </trkpt>
      <trkpt lat="44.9699480" lon="-93.5228470">
        <ele>293.8200000</ele>
        <time>2009-06-25T00:20:15Z</time>
      </trkpt>
      <trkpt lat="44.9699170" lon="-93.5228790">
        <ele>292.8600000</ele>
        <time>2009-06-25T00:20:16Z</time>
      </trkpt>
      <trkpt lat="44.9698540" lon="-93.5228260">
        <ele>291.9000000</ele>
        <time>2009-06-25T00:20:17Z</time>
      </trkpt>
      <trkpt lat="44.9698050" lon="-93.5227860">
        <ele>291.4200000</ele>
        <time>2009-06-25T00:20:18Z</time>
      </trkpt>
      <trkpt lat="44.9697400" lon="-93.5227310">
        <ele>290.9400000</ele>
        <time>2009-06-25T00:20:19Z</time>
      </trkpt>
      <trkpt lat="44.9696770" lon="-93.5226790">
        <ele>290.9400000</ele>
        <time>2009-06-25T00:20:20Z</time>
      </trkpt>
      <trkpt lat="44.9696020" lon="-93.5226590">
        <ele>290.4600000</ele>
        <time>2009-06-25T00:20:21Z</time>
      </trkpt>
      <trkpt lat="44.9695320" lon="-93.5226530">
        <ele>290.4600000</ele>
        <time>2009-06-25T00:20:22Z</time>
      </trkpt>
      <trkpt lat="44.9694590" lon="-93.5226460">
        <ele>289.9700000</ele>
        <time>2009-06-25T00:20:23Z</time>
      </trkpt>
      <trkpt lat="44.9685440" lon="-93.5226780">
        <ele>289.9700000</ele>
        <time>2009-06-25T00:20:35Z</time>
      </trkpt>
      <trkpt lat="44.9684540" lon="-93.5227110">
        <ele>291.4200000</ele>
        <time>2009-06-25T00:20:36Z</time>
      </trkpt>
      <trkpt lat="44.9683690" lon="-93.5227780">
        <ele>292.3800000</ele>
        <time>2009-06-25T00:20:37Z</time>
      </trkpt>
      <trkpt lat="44.9682820" lon="-93.5228480">
        <ele>293.8200000</ele>
        <time>2009-06-25T00:20:38Z</time>
      </trkpt>
      <trkpt lat="44.9682020" lon="-93.5229610">
        <ele>294.7800000</ele>
        <time>2009-06-25T00:20:39Z</time>
      </trkpt>
      <trkpt lat="44.9681390" lon="-93.5230870">
        <ele>296.2200000</ele>
        <time>2009-06-25T00:20:40Z</time>
      </trkpt>
      <trkpt lat="44.9680880" lon="-93.5232200">
        <ele>297.6700000</ele>
        <time>2009-06-25T00:20:41Z</time>
      </trkpt>
      <trkpt lat="44.9680420" lon="-93.5233630">
        <ele>298.6300000</ele>
        <time>2009-06-25T00:20:42Z</time>
      </trkpt>
      <trkpt lat="44.9679980" lon="-93.5235020">
        <ele>300.0700000</ele>
        <time>2009-06-25T00:20:43Z</time>
      </trkpt>
      <trkpt lat="44.9679560" lon="-93.5236360">
        <ele>301.5100000</ele>
        <time>2009-06-25T00:20:44Z</time>
      </trkpt>
      <trkpt lat="44.9677790" lon="-93.5241330">
        <ele>304.8800000</ele>
        <time>2009-06-25T00:20:48Z</time>
      </trkpt>
      <trkpt lat="44.9677160" lon="-93.5242270">
        <ele>305.8400000</ele>
        <time>2009-06-25T00:20:49Z</time>
      </trkpt>
      <trkpt lat="44.9676450" lon="-93.5243350">
        <ele>306.8000000</ele>
        <time>2009-06-25T00:20:50Z</time>
      </trkpt>
      <trkpt lat="44.9675650" lon="-93.5244110">
        <ele>307.2800000</ele>
        <time>2009-06-25T00:20:51Z</time>
      </trkpt>
      <trkpt lat="44.9674920" lon="-93.5244800">
        <ele>308.2400000</ele>
        <time>2009-06-25T00:20:52Z</time>
      </trkpt>
      <trkpt lat="44.9660420" lon="-93.5259710">
        <ele>302.9500000</ele>
        <time>2009-06-25T00:21:11Z</time>
      </trkpt>
      <trkpt lat="44.9651480" lon="-93.5269160">
        <ele>304.8800000</ele>
        <time>2009-06-25T00:21:25Z</time>
      </trkpt>
      <trkpt lat="44.9640380" lon="-93.5277790">
        <ele>302.9500000</ele>
        <time>2009-06-25T00:21:39Z</time>
      </trkpt>
      <trkpt lat="44.9638860" lon="-93.5278860">
        <ele>302.9500000</ele>
        <time>2009-06-25T00:21:41Z</time>
      </trkpt>
      <trkpt lat="44.9638290" lon="-93.5279590">
        <ele>302.4700000</ele>
        <time>2009-06-25T00:21:42Z</time>
      </trkpt>
      <trkpt lat="44.9637750" lon="-93.5280450">
        <ele>301.9900000</ele>
        <time>2009-06-25T00:21:43Z</time>
      </trkpt>
      <trkpt lat="44.9637200" lon="-93.5281320">
        <ele>302.4700000</ele>
        <time>2009-06-25T00:21:44Z</time>
      </trkpt>
      <trkpt lat="44.9636650" lon="-93.5282210">
        <ele>303.4300000</ele>
        <time>2009-06-25T00:21:45Z</time>
      </trkpt>
      <trkpt lat="44.9636320" lon="-93.5283300">
        <ele>303.9100000</ele>
        <time>2009-06-25T00:21:46Z</time>
      </trkpt>
      <trkpt lat="44.9636070" lon="-93.5284420">
        <ele>304.3900000</ele>
        <time>2009-06-25T00:21:47Z</time>
      </trkpt>
      <trkpt lat="44.9635820" lon="-93.5285540">
        <ele>304.8800000</ele>
        <time>2009-06-25T00:21:48Z</time>
      </trkpt>
      <trkpt lat="44.9635670" lon="-93.5286800">
        <ele>305.3600000</ele>
        <time>2009-06-25T00:21:49Z</time>
      </trkpt>
      <trkpt lat="44.9635720" lon="-93.5288030">
        <ele>305.8400000</ele>
        <time>2009-06-25T00:21:50Z</time>
      </trkpt>
      <trkpt lat="44.9636280" lon="-93.5302210">
        <ele>305.3600000</ele>
        <time>2009-06-25T00:22:01Z</time>
      </trkpt>
      <trkpt lat="44.9636510" lon="-93.5317900">
        <ele>305.8400000</ele>
        <time>2009-06-25T00:22:13Z</time>
      </trkpt>
      <trkpt lat="44.9636910" lon="-93.5338840">
        <ele>303.4300000</ele>
        <time>2009-06-25T00:22:28Z</time>
      </trkpt>
      <trkpt lat="44.9637490" lon="-93.5357620">
        <ele>293.3400000</ele>
        <time>2009-06-25T00:22:41Z</time>
      </trkpt>
      <trkpt lat="44.9637530" lon="-93.5358700">
        <ele>292.3800000</ele>
        <time>2009-06-25T00:22:42Z</time>
      </trkpt>
      <trkpt lat="44.9637790" lon="-93.5367160">
        <ele>290.9400000</ele>
        <time>2009-06-25T00:22:51Z</time>
      </trkpt>
      <trkpt lat="44.9639620" lon="-93.5375740">
        <ele>289.0100000</ele>
        <time>2009-06-25T00:23:00Z</time>
      </trkpt>
      <trkpt lat="44.9639840" lon="-93.5376750">
        <ele>289.0100000</ele>
        <time>2009-06-25T00:23:01Z</time>
      </trkpt>
      <trkpt lat="44.9640080" lon="-93.5377880">
        <ele>289.0100000</ele>
        <time>2009-06-25T00:23:02Z</time>
      </trkpt>
      <trkpt lat="44.9643550" lon="-93.5393800">
        <ele>281.3200000</ele>
        <time>2009-06-25T00:23:15Z</time>
      </trkpt>
      <trkpt lat="44.9645120" lon="-93.5401250">
        <ele>285.1700000</ele>
        <time>2009-06-25T00:23:22Z</time>
      </trkpt>
      <trkpt lat="44.9645250" lon="-93.5403090">
        <ele>286.1300000</ele>
        <time>2009-06-25T00:23:24Z</time>
      </trkpt>
      <trkpt lat="44.9645320" lon="-93.5404170">
        <ele>286.1300000</ele>
        <time>2009-06-25T00:23:25Z</time>
      </trkpt>
      <trkpt lat="44.9645410" lon="-93.5405370">
        <ele>287.0900000</ele>
        <time>2009-06-25T00:23:26Z</time>
      </trkpt>
      <trkpt lat="44.9646460" lon="-93.5421120">
        <ele>288.5300000</ele>
        <time>2009-06-25T00:23:37Z</time>
      </trkpt>
      <trkpt lat="44.9647460" lon="-93.5443520">
        <ele>289.0100000</ele>
        <time>2009-06-25T00:23:53Z</time>
      </trkpt>
      <trkpt lat="44.9649360" lon="-93.5459390">
        <ele>287.0900000</ele>
        <time>2009-06-25T00:24:06Z</time>
      </trkpt>
      <trkpt lat="44.9654880" lon="-93.5473180">
        <ele>284.2100000</ele>
        <time>2009-06-25T00:24:17Z</time>
      </trkpt>
      <trkpt lat="44.9656690" lon="-93.5477890">
        <ele>284.6900000</ele>
        <time>2009-06-25T00:24:21Z</time>
      </trkpt>
      <trkpt lat="44.9656740" lon="-93.5479100">
        <ele>284.6900000</ele>
        <time>2009-06-25T00:24:22Z</time>
      </trkpt>
      <trkpt lat="44.9656780" lon="-93.5480280">
        <ele>284.6900000</ele>
        <time>2009-06-25T00:24:23Z</time>
      </trkpt>
      <trkpt lat="44.9656830" lon="-93.5481580">
        <ele>285.1700000</ele>
        <time>2009-06-25T00:24:24Z</time>
      </trkpt>
      <trkpt lat="44.9656870" lon="-93.5482620">
        <ele>285.1700000</ele>
        <time>2009-06-25T00:24:25Z</time>
      </trkpt>
      <trkpt lat="44.9656910" lon="-93.5483730">
        <ele>284.6900000</ele>
        <time>2009-06-25T00:24:26Z</time>
      </trkpt>
      <trkpt lat="44.9657100" lon="-93.5488540">
        <ele>285.6500000</ele>
        <time>2009-06-25T00:24:30Z</time>
      </trkpt>
      <trkpt lat="44.9657380" lon="-93.5489620">
        <ele>285.1700000</ele>
        <time>2009-06-25T00:24:31Z</time>
      </trkpt>
      <trkpt lat="44.9657760" lon="-93.5490700">
        <ele>285.1700000</ele>
        <time>2009-06-25T00:24:32Z</time>
      </trkpt>
      <trkpt lat="44.9658180" lon="-93.5491900">
        <ele>285.1700000</ele>
        <time>2009-06-25T00:24:33Z</time>
      </trkpt>
      <trkpt lat="44.9658620" lon="-93.5493130">
        <ele>285.6500000</ele>
        <time>2009-06-25T00:24:34Z</time>
      </trkpt>
      <trkpt lat="44.9666000" lon="-93.5506640">
        <ele>285.6500000</ele>
        <time>2009-06-25T00:24:46Z</time>
      </trkpt>
      <trkpt lat="44.9674480" lon="-93.5519210">
        <ele>288.0500000</ele>
        <time>2009-06-25T00:24:57Z</time>
      </trkpt>
      <trkpt lat="44.9674830" lon="-93.5519730">
        <ele>288.0500000</ele>
        <time>2009-06-25T00:24:58Z</time>
      </trkpt>
      <trkpt lat="44.9675070" lon="-93.5520090">
        <ele>288.0500000</ele>
        <time>2009-06-25T00:24:59Z</time>
      </trkpt>
      <trkpt lat="44.9675220" lon="-93.5520350">
        <ele>288.0500000</ele>
        <time>2009-06-25T00:25:00Z</time>
      </trkpt>
      <trkpt lat="44.9675310" lon="-93.5520560">
        <ele>288.0500000</ele>
        <time>2009-06-25T00:25:01Z</time>
      </trkpt>
      <trkpt lat="44.9674490" lon="-93.5519220">
        <ele>285.6500000</ele>
        <time>2009-06-25T00:25:05Z</time>
      </trkpt>
      <trkpt lat="44.9669550" lon="-93.5511900">
        <ele>282.2800000</ele>
        <time>2009-06-25T00:25:13Z</time>
      </trkpt>
      <trkpt lat="44.9660740" lon="-93.5498100">
        <ele>281.8000000</ele>
        <time>2009-06-25T00:25:26Z</time>
      </trkpt>
      <trkpt lat="44.9657100" lon="-93.5488500">
        <ele>283.7300000</ele>
        <time>2009-06-25T00:25:34Z</time>
      </trkpt>
      <trkpt lat="44.9657040" lon="-93.5487120">
        <ele>283.7300000</ele>
        <time>2009-06-25T00:25:35Z</time>
      </trkpt>
      <trkpt lat="44.9656990" lon="-93.5485690">
        <ele>284.2100000</ele>
        <time>2009-06-25T00:25:36Z</time>
      </trkpt>
      <trkpt lat="44.9656930" lon="-93.5484210">
        <ele>283.7300000</ele>
        <time>2009-06-25T00:25:37Z</time>
      </trkpt>
      <trkpt lat="44.9656880" lon="-93.5482770">
        <ele>283.2500000</ele>
        <time>2009-06-25T00:25:38Z</time>
      </trkpt>
      <trkpt lat="44.9656710" lon="-93.5478490">
        <ele>280.8400000</ele>
        <time>2009-06-25T00:25:41Z</time>
      </trkpt>
      <trkpt lat="44.9656540" lon="-93.5477340">
        <ele>280.8400000</ele>
        <time>2009-06-25T00:25:42Z</time>
      </trkpt>
      <trkpt lat="44.9656080" lon="-93.5476200">
        <ele>280.8400000</ele>
        <time>2009-06-25T00:25:43Z</time>
      </trkpt>
      <trkpt lat="44.9655610" lon="-93.5475030">
        <ele>281.3200000</ele>
        <time>2009-06-25T00:25:44Z</time>
      </trkpt>
      <trkpt lat="44.9655140" lon="-93.5473830">
        <ele>281.8000000</ele>
        <time>2009-06-25T00:25:45Z</time>
      </trkpt>
      <trkpt lat="44.9654660" lon="-93.5472630">
        <ele>282.2800000</ele>
        <time>2009-06-25T00:25:46Z</time>
      </trkpt>
      <trkpt lat="44.9648960" lon="-93.5458380">
        <ele>283.7300000</ele>
        <time>2009-06-25T00:25:58Z</time>
      </trkpt>
      <trkpt lat="44.9648600" lon="-93.5456250">
        <ele>283.2500000</ele>
        <time>2009-06-25T00:26:00Z</time>
      </trkpt>
      <trkpt lat="44.9648210" lon="-93.5453920">
        <ele>283.2500000</ele>
        <time>2009-06-25T00:26:02Z</time>
      </trkpt>
      <trkpt lat="44.9648010" lon="-93.5452690">
        <ele>283.2500000</ele>
        <time>2009-06-25T00:26:03Z</time>
      </trkpt>
      <trkpt lat="44.9646740" lon="-93.5427350">
        <ele>283.2500000</ele>
        <time>2009-06-25T00:26:21Z</time>
      </trkpt>
      <trkpt lat="44.9645890" lon="-93.5412250">
        <ele>282.7700000</ele>
        <time>2009-06-25T00:26:33Z</time>
      </trkpt>
      <trkpt lat="44.9644770" lon="-93.5399380">
        <ele>282.7700000</ele>
        <time>2009-06-25T00:26:44Z</time>
      </trkpt>
      <trkpt lat="44.9644300" lon="-93.5397250">
        <ele>281.8000000</ele>
        <time>2009-06-25T00:26:47Z</time>
      </trkpt>
      <trkpt lat="44.9642300" lon="-93.5388040">
        <ele>283.7300000</ele>
        <time>2009-06-25T00:26:56Z</time>
      </trkpt>
      <trkpt lat="44.9638870" lon="-93.5372310">
        <ele>280.8400000</ele>
        <time>2009-06-25T00:27:10Z</time>
      </trkpt>
      <trkpt lat="44.9637670" lon="-93.5363230">
        <ele>279.8800000</ele>
        <time>2009-06-25T00:27:20Z</time>
      </trkpt>
      <trkpt lat="44.9637290" lon="-93.5351020">
        <ele>282.2800000</ele>
        <time>2009-06-25T00:27:32Z</time>
      </trkpt>
      <trkpt lat="44.9636760" lon="-93.5334070">
        <ele>290.9400000</ele>
        <time>2009-06-25T00:27:45Z</time>
      </trkpt>
      <trkpt lat="44.9636510" lon="-93.5324560">
        <ele>293.8200000</ele>
        <time>2009-06-25T00:27:54Z</time>
      </trkpt>
      <trkpt lat="44.9636480" lon="-93.5307240">
        <ele>297.1800000</ele>
        <time>2009-06-25T00:28:08Z</time>
      </trkpt>
      <trkpt lat="44.9635840" lon="-93.5290930">
        <ele>298.6300000</ele>
        <time>2009-06-25T00:28:21Z</time>
      </trkpt>
      <trkpt lat="44.9636350" lon="-93.5283160">
        <ele>299.1100000</ele>
        <time>2009-06-25T00:28:27Z</time>
      </trkpt>
      <trkpt lat="44.9636680" lon="-93.5282160">
        <ele>299.1100000</ele>
        <time>2009-06-25T00:28:28Z</time>
      </trkpt>
      <trkpt lat="44.9637270" lon="-93.5281230">
        <ele>299.5900000</ele>
        <time>2009-06-25T00:28:29Z</time>
      </trkpt>
      <trkpt lat="44.9637850" lon="-93.5280290">
        <ele>299.5900000</ele>
        <time>2009-06-25T00:28:30Z</time>
      </trkpt>
      <trkpt lat="44.9638440" lon="-93.5279360">
        <ele>300.0700000</ele>
        <time>2009-06-25T00:28:31Z</time>
      </trkpt>
      <trkpt lat="44.9638980" lon="-93.5278770">
        <ele>300.0700000</ele>
        <time>2009-06-25T00:28:32Z</time>
      </trkpt>
      <trkpt lat="44.9639740" lon="-93.5278230">
        <ele>299.5900000</ele>
        <time>2009-06-25T00:28:33Z</time>
      </trkpt>
      <trkpt lat="44.9640550" lon="-93.5277670">
        <ele>299.1100000</ele>
        <time>2009-06-25T00:28:34Z</time>
      </trkpt>
      <trkpt lat="44.9641390" lon="-93.5277070">
        <ele>299.1100000</ele>
        <time>2009-06-25T00:28:35Z</time>
      </trkpt>
      <trkpt lat="44.9653310" lon="-93.5267230">
        <ele>304.8800000</ele>
        <time>2009-06-25T00:28:49Z</time>
      </trkpt>
      <trkpt lat="44.9666450" lon="-93.5253300">
        <ele>313.5300000</ele>
        <time>2009-06-25T00:29:05Z</time>
      </trkpt>
      <trkpt lat="44.9678060" lon="-93.5240930">
        <ele>313.5300000</ele>
        <time>2009-06-25T00:29:20Z</time>
      </trkpt>
      <trkpt lat="44.9678430" lon="-93.5239900">
        <ele>312.5700000</ele>
        <time>2009-06-25T00:29:21Z</time>
      </trkpt>
      <trkpt lat="44.9678810" lon="-93.5238690">
        <ele>311.6000000</ele>
        <time>2009-06-25T00:29:22Z</time>
      </trkpt>
      <trkpt lat="44.9679210" lon="-93.5237460">
        <ele>311.1200000</ele>
        <time>2009-06-25T00:29:23Z</time>
      </trkpt>
      <trkpt lat="44.9679580" lon="-93.5236260">
        <ele>309.6800000</ele>
        <time>2009-06-25T00:29:24Z</time>
      </trkpt>
      <trkpt lat="44.9681150" lon="-93.5231360">
        <ele>307.7600000</ele>
        <time>2009-06-25T00:29:28Z</time>
      </trkpt>
      <trkpt lat="44.9681710" lon="-93.5230230">
        <ele>307.2800000</ele>
        <time>2009-06-25T00:29:29Z</time>
      </trkpt>
      <trkpt lat="44.9682290" lon="-93.5229070">
        <ele>306.3200000</ele>
        <time>2009-06-25T00:29:30Z</time>
      </trkpt>
      <trkpt lat="44.9683100" lon="-93.5228250">
        <ele>305.8400000</ele>
        <time>2009-06-25T00:29:31Z</time>
      </trkpt>
      <trkpt lat="44.9684000" lon="-93.5227530">
        <ele>304.8800000</ele>
        <time>2009-06-25T00:29:32Z</time>
      </trkpt>
      <trkpt lat="44.9684870" lon="-93.5226970">
        <ele>303.9100000</ele>
        <time>2009-06-25T00:29:33Z</time>
      </trkpt>
      <trkpt lat="44.9685860" lon="-93.5226640">
        <ele>303.4300000</ele>
        <time>2009-06-25T00:29:34Z</time>
      </trkpt>
      <trkpt lat="44.9686760" lon="-93.5226550">
        <ele>302.4700000</ele>
        <time>2009-06-25T00:29:35Z</time>
      </trkpt>
      <trkpt lat="44.9687700" lon="-93.5226460">
        <ele>301.5100000</ele>
        <time>2009-06-25T00:29:36Z</time>
      </trkpt>
      <trkpt lat="44.9688650" lon="-93.5226360">
        <ele>300.5500000</ele>
        <time>2009-06-25T00:29:37Z</time>
      </trkpt>
      <trkpt lat="44.9689680" lon="-93.5226260">
        <ele>300.0700000</ele>
        <time>2009-06-25T00:29:38Z</time>
      </trkpt>
      <trkpt lat="44.9696300" lon="-93.5226620">
        <ele>296.7000000</ele>
        <time>2009-06-25T00:29:45Z</time>
      </trkpt>
      <trkpt lat="44.9697120" lon="-93.5227080">
        <ele>297.6700000</ele>
        <time>2009-06-25T00:29:46Z</time>
      </trkpt>
      <trkpt lat="44.9697710" lon="-93.5227570">
        <ele>297.6700000</ele>
        <time>2009-06-25T00:29:47Z</time>
      </trkpt>
      <trkpt lat="44.9698220" lon="-93.5228000">
        <ele>297.6700000</ele>
        <time>2009-06-25T00:29:48Z</time>
      </trkpt>
      <trkpt lat="44.9698540" lon="-93.5228260">
        <ele>297.6700000</ele>
        <time>2009-06-25T00:29:49Z</time>
      </trkpt>
      <trkpt lat="44.9699600" lon="-93.5228360">
        <ele>297.6700000</ele>
        <time>2009-06-25T00:29:52Z</time>
      </trkpt>
      <trkpt lat="44.9699910" lon="-93.5228040">
        <ele>297.6700000</ele>
        <time>2009-06-25T00:29:53Z</time>
      </trkpt>
      <trkpt lat="44.9700730" lon="-93.5227370">
        <ele>297.6700000</ele>
        <time>2009-06-25T00:29:55Z</time>
      </trkpt>
      <trkpt lat="44.9701310" lon="-93.5227070">
        <ele>297.6700000</ele>
        <time>2009-06-25T00:29:56Z</time>
      </trkpt>
      <trkpt lat="44.9702930" lon="-93.5225690">
        <ele>297.1800000</ele>
        <time>2009-06-25T00:29:59Z</time>
      </trkpt>
      <trkpt lat="44.9703430" lon="-93.5225260">
        <ele>297.1800000</ele>
        <time>2009-06-25T00:30:00Z</time>
      </trkpt>
      <trkpt lat="44.9703940" lon="-93.5224820">
        <ele>297.6700000</ele>
        <time>2009-06-25T00:30:01Z</time>
      </trkpt>
      <trkpt lat="44.9704350" lon="-93.5224280">
        <ele>297.6700000</ele>
        <time>2009-06-25T00:30:02Z</time>
      </trkpt>
      <trkpt lat="44.9704510" lon="-93.5223330">
        <ele>297.6700000</ele>
        <time>2009-06-25T00:30:03Z</time>
      </trkpt>
      <trkpt lat="44.9704680" lon="-93.5222320">
        <ele>297.6700000</ele>
        <time>2009-06-25T00:30:04Z</time>
      </trkpt>
      <trkpt lat="44.9704750" lon="-93.5221280">
        <ele>297.6700000</ele>
        <time>2009-06-25T00:30:05Z</time>
      </trkpt>
      <trkpt lat="44.9704750" lon="-93.5220120">
        <ele>297.1800000</ele>
        <time>2009-06-25T00:30:06Z</time>
      </trkpt>
      <trkpt lat="44.9704750" lon="-93.5202320">
        <ele>295.7400000</ele>
        <time>2009-06-25T00:30:21Z</time>
      </trkpt>
      <trkpt lat="44.9704070" lon="-93.5184480">
        <ele>292.3800000</ele>
        <time>2009-06-25T00:30:37Z</time>
      </trkpt>
      <trkpt lat="44.9703610" lon="-93.5179690">
        <ele>288.5300000</ele>
        <time>2009-06-25T00:30:46Z</time>
      </trkpt>
      <trkpt lat="44.9703460" lon="-93.5173670">
        <ele>289.0100000</ele>
        <time>2009-06-25T00:31:03Z</time>
      </trkpt>
      <trkpt lat="44.9703140" lon="-93.5170080">
        <ele>289.4900000</ele>
        <time>2009-06-25T00:31:12Z</time>
      </trkpt>
      <trkpt lat="44.9700810" lon="-93.5157750">
        <ele>286.6100000</ele>
        <time>2009-06-25T00:31:23Z</time>
      </trkpt>
      <trkpt lat="44.9697300" lon="-93.5141440">
        <ele>282.2800000</ele>
        <time>2009-06-25T00:31:40Z</time>
      </trkpt>
      <trkpt lat="44.9696620" lon="-93.5138230">
        <ele>281.3200000</ele>
        <time>2009-06-25T00:31:50Z</time>
      </trkpt>
      <trkpt lat="44.9694980" lon="-93.5129900">
        <ele>280.3600000</ele>
        <time>2009-06-25T00:32:02Z</time>
      </trkpt>
      <trkpt lat="44.9692440" lon="-93.5116630">
        <ele>279.8800000</ele>
        <time>2009-06-25T00:32:20Z</time>
      </trkpt>
      <trkpt lat="44.9691190" lon="-93.5111080">
        <ele>279.8800000</ele>
        <time>2009-06-25T00:32:28Z</time>
      </trkpt>
      <trkpt lat="44.9687140" lon="-93.5093110">
        <ele>279.4000000</ele>
        <time>2009-06-25T00:32:44Z</time>
      </trkpt>
      <trkpt lat="44.9684690" lon="-93.5083330">
        <ele>280.3600000</ele>
        <time>2009-06-25T00:32:53Z</time>
      </trkpt>
      <trkpt lat="44.9684530" lon="-93.5082690">
        <ele>280.3600000</ele>
        <time>2009-06-25T00:32:54Z</time>
      </trkpt>
      <trkpt lat="44.9684450" lon="-93.5082380">
        <ele>280.3600000</ele>
        <time>2009-06-25T00:32:55Z</time>
      </trkpt>
      <trkpt lat="44.9684270" lon="-93.5082490">
        <ele>279.8800000</ele>
        <time>2009-06-25T00:32:57Z</time>
      </trkpt>
      <trkpt lat="44.9683890" lon="-93.5082730">
        <ele>280.3600000</ele>
        <time>2009-06-25T00:32:59Z</time>
      </trkpt>
      <trkpt lat="44.9683360" lon="-93.5078010">
        <ele>281.3200000</ele>
        <time>2009-06-25T00:33:09Z</time>
      </trkpt>
      <trkpt lat="44.9681780" lon="-93.5071700">
        <ele>278.9200000</ele>
        <time>2009-06-25T00:33:25Z</time>
      </trkpt>
      <trkpt lat="44.9680470" lon="-93.5066450">
        <ele>275.5600000</ele>
        <time>2009-06-25T00:33:40Z</time>
      </trkpt>
      <trkpt lat="44.9680240" lon="-93.5065550">
        <ele>275.5600000</ele>
        <time>2009-06-25T00:33:43Z</time>
      </trkpt>
      <trkpt lat="44.9680200" lon="-93.5065360">
        <ele>275.5600000</ele>
        <time>2009-06-25T00:33:44Z</time>
      </trkpt>
      <trkpt lat="44.9679550" lon="-93.5065770">
        <ele>277.0000000</ele>
        <time>2009-06-25T00:33:54Z</time>
      </trkpt>
    </trkseg>
  </trk>

</gpx>
